<?xml version='1.0' encoding='UTF-8'?>
<gpx version="1.1" creator="https://www.komoot.de" xmlns="http://www.topografix.com/GPX/1/1" xmlns:xsi="http://www.w3.org/2001/XMLSchema-instance" xsi:schemaLocation="http://www.topografix.com/GPX/1/1 http://www.topografix.com/GPX/1/1/gpx.xsd">
  <metadata>
    <name>Randonnée Cicloturistico 2026 (4/5/26)</name>
    <author>
      <link href="https://www.komoot.de">
        <text>komoot</text>
        <type>text/html</type>
      </link>
    </author>
  </metadata>
  <trk>
    <name>Randonnée Cicloturistico 2026 (4/5/26)</name>
    <trkseg>
      <trkpt lat="43.655987" lon="10.629775">
        <ele>15.745408</ele>
        <time>2026-05-04T21:42:58.832Z</time>
      </trkpt>
      <trkpt lat="43.656002" lon="10.629657">
        <ele>15.745408</ele>
        <time>2026-05-04T21:43:01.287Z</time>
      </trkpt>
      <trkpt lat="43.655938" lon="10.629641">
        <ele>15.745408</ele>
        <time>2026-05-04T21:43:05.788Z</time>
      </trkpt>
      <trkpt lat="43.655783" lon="10.630798">
        <ele>15.645507</ele>
        <time>2026-05-04T21:43:23.454Z</time>
      </trkpt>
      <trkpt lat="43.655747" lon="10.631021">
        <ele>15.486277</ele>
        <time>2026-05-04T21:43:26.779Z</time>
      </trkpt>
      <trkpt lat="43.655659" lon="10.631488">
        <ele>15.149969</ele>
        <time>2026-05-04T21:43:33.727Z</time>
      </trkpt>
      <trkpt lat="43.655590" lon="10.631469">
        <ele>15.082201</ele>
        <time>2026-05-04T21:43:35.132Z</time>
      </trkpt>
      <trkpt lat="43.655438" lon="10.631528">
        <ele>14.930126</ele>
        <time>2026-05-04T21:43:38.285Z</time>
      </trkpt>
      <trkpt lat="43.655125" lon="10.631413">
        <ele>14.618165</ele>
        <time>2026-05-04T21:43:44.860Z</time>
      </trkpt>
      <trkpt lat="43.654984" lon="10.631432">
        <ele>14.481706</ele>
        <time>2026-05-04T21:43:47.763Z</time>
      </trkpt>
      <trkpt lat="43.654957" lon="10.631316">
        <ele>14.396785</ele>
        <time>2026-05-04T21:43:49.558Z</time>
      </trkpt>
      <trkpt lat="43.654984" lon="10.631432">
        <ele>14.311864</ele>
        <time>2026-05-04T21:43:51.368Z</time>
      </trkpt>
      <trkpt lat="43.654679" lon="10.631313">
        <ele>14.009203</ele>
        <time>2026-05-04T21:43:57.833Z</time>
      </trkpt>
      <trkpt lat="43.654628" lon="10.631289">
        <ele>13.978740</ele>
        <time>2026-05-04T21:43:58.927Z</time>
      </trkpt>
      <trkpt lat="43.654604" lon="10.631337">
        <ele>13.954870</ele>
        <time>2026-05-04T21:43:59.792Z</time>
      </trkpt>
      <trkpt lat="43.654409" lon="10.631137">
        <ele>13.817568</ele>
        <time>2026-05-04T21:44:04.737Z</time>
      </trkpt>
      <trkpt lat="43.654390" lon="10.631087">
        <ele>13.794463</ele>
        <time>2026-05-04T21:44:05.579Z</time>
      </trkpt>
      <trkpt lat="43.654348" lon="10.630904">
        <ele>13.715920</ele>
        <time>2026-05-04T21:44:08.448Z</time>
      </trkpt>
      <trkpt lat="43.654250" lon="10.629909">
        <ele>13.305107</ele>
        <time>2026-05-04T21:44:23.921Z</time>
      </trkpt>
      <trkpt lat="43.654165" lon="10.629503">
        <ele>13.132197</ele>
        <time>2026-05-04T21:44:30.637Z</time>
      </trkpt>
      <trkpt lat="43.653977" lon="10.628956">
        <ele>12.974502</ele>
        <time>2026-05-04T21:44:40.452Z</time>
      </trkpt>
      <trkpt lat="43.653551" lon="10.628080">
        <ele>12.891647</ele>
        <time>2026-05-04T21:44:58.028Z</time>
      </trkpt>
      <trkpt lat="43.653513" lon="10.627930">
        <ele>12.879171</ele>
        <time>2026-05-04T21:45:00.675Z</time>
      </trkpt>
      <trkpt lat="43.653511" lon="10.627778">
        <ele>12.867237</ele>
        <time>2026-05-04T21:45:03.238Z</time>
      </trkpt>
      <trkpt lat="43.653522" lon="10.627635">
        <ele>12.855948</ele>
        <time>2026-05-04T21:45:05.612Z</time>
      </trkpt>
      <trkpt lat="43.653462" lon="10.627401">
        <ele>12.836459</ele>
        <time>2026-05-04T21:45:09.684Z</time>
      </trkpt>
      <trkpt lat="43.653390" lon="10.627308">
        <ele>12.825767</ele>
        <time>2026-05-04T21:45:11.860Z</time>
      </trkpt>
      <trkpt lat="43.653309" lon="10.627252">
        <ele>12.815941</ele>
        <time>2026-05-04T21:45:13.866Z</time>
      </trkpt>
      <trkpt lat="43.653272" lon="10.627247">
        <ele>12.811907</ele>
        <time>2026-05-04T21:45:14.696Z</time>
      </trkpt>
      <trkpt lat="43.653194" lon="10.627236">
        <ele>12.803400</ele>
        <time>2026-05-04T21:45:16.436Z</time>
      </trkpt>
      <trkpt lat="43.653039" lon="10.627318">
        <ele>12.812335</ele>
        <time>2026-05-04T21:45:20.089Z</time>
      </trkpt>
      <trkpt lat="43.652945" lon="10.627477">
        <ele>12.824519</ele>
        <time>2026-05-04T21:45:23.384Z</time>
      </trkpt>
      <trkpt lat="43.652919" lon="10.627674">
        <ele>12.836401</ele>
        <time>2026-05-04T21:45:26.585Z</time>
      </trkpt>
      <trkpt lat="43.652858" lon="10.627921">
        <ele>12.851888</ele>
        <time>2026-05-04T21:45:30.771Z</time>
      </trkpt>
      <trkpt lat="43.652692" lon="10.628222">
        <ele>12.874345</ele>
        <time>2026-05-04T21:45:36.941Z</time>
      </trkpt>
      <trkpt lat="43.651701" lon="10.629282">
        <ele>13.214056</ele>
        <time>2026-05-04T21:46:08.168Z</time>
      </trkpt>
      <trkpt lat="43.651325" lon="10.629680">
        <ele>13.571682</ele>
        <time>2026-05-04T21:46:21.739Z</time>
      </trkpt>
      <trkpt lat="43.651169" lon="10.629782">
        <ele>13.701997</ele>
        <time>2026-05-04T21:46:26.612Z</time>
      </trkpt>
      <trkpt lat="43.650994" lon="10.629836">
        <ele>13.837394</ele>
        <time>2026-05-04T21:46:31.733Z</time>
      </trkpt>
      <trkpt lat="43.650865" lon="10.629799">
        <ele>13.936879</ele>
        <time>2026-05-04T21:46:35.504Z</time>
      </trkpt>
      <trkpt lat="43.650773" lon="10.629697">
        <ele>14.025940</ele>
        <time>2026-05-04T21:46:38.866Z</time>
      </trkpt>
      <trkpt lat="43.650663" lon="10.629624">
        <ele>14.118082</ele>
        <time>2026-05-04T21:46:42.379Z</time>
      </trkpt>
      <trkpt lat="43.650616" lon="10.629625">
        <ele>14.153576</ele>
        <time>2026-05-04T21:46:43.734Z</time>
      </trkpt>
      <trkpt lat="43.650582" lon="10.629626">
        <ele>14.179256</ele>
        <time>2026-05-04T21:46:44.719Z</time>
      </trkpt>
      <trkpt lat="43.650506" lon="10.629668">
        <ele>14.241062</ele>
        <time>2026-05-04T21:46:47.030Z</time>
      </trkpt>
      <trkpt lat="43.650424" lon="10.629794">
        <ele>14.329822</ele>
        <time>2026-05-04T21:46:50.458Z</time>
      </trkpt>
      <trkpt lat="43.650414" lon="10.629829">
        <ele>14.347489</ele>
        <time>2026-05-04T21:46:51.196Z</time>
      </trkpt>
      <trkpt lat="43.650311" lon="10.629978">
        <ele>14.444237</ele>
        <time>2026-05-04T21:46:55.321Z</time>
      </trkpt>
      <trkpt lat="43.650064" lon="10.630088">
        <ele>14.612620</ele>
        <time>2026-05-04T21:47:02.285Z</time>
      </trkpt>
      <trkpt lat="43.649751" lon="10.629997">
        <ele>14.820158</ele>
        <time>2026-05-04T21:47:10.648Z</time>
      </trkpt>
      <trkpt lat="43.648362" lon="10.629594">
        <ele>15.715640</ele>
        <time>2026-05-04T21:47:48.298Z</time>
      </trkpt>
      <trkpt lat="43.647164" lon="10.629249">
        <ele>16.434210</ele>
        <time>2026-05-04T21:48:21.102Z</time>
      </trkpt>
      <trkpt lat="43.646987" lon="10.629197">
        <ele>16.536743</ele>
        <time>2026-05-04T21:48:25.843Z</time>
      </trkpt>
      <trkpt lat="43.646446" lon="10.629037">
        <ele>16.749916</ele>
        <time>2026-05-04T21:48:40.074Z</time>
      </trkpt>
      <trkpt lat="43.646035" lon="10.628916">
        <ele>16.911833</ele>
        <time>2026-05-04T21:48:50.475Z</time>
      </trkpt>
      <trkpt lat="43.643094" lon="10.628072">
        <ele>17.991625</ele>
        <time>2026-05-04T21:50:06.382Z</time>
      </trkpt>
      <trkpt lat="43.642718" lon="10.628002">
        <ele>18.049046</ele>
        <time>2026-05-04T21:50:16.032Z</time>
      </trkpt>
      <trkpt lat="43.642326" lon="10.627982">
        <ele>18.108416</ele>
        <time>2026-05-04T21:50:25.606Z</time>
      </trkpt>
      <trkpt lat="43.641749" lon="10.628010">
        <ele>18.195798</ele>
        <time>2026-05-04T21:50:38.781Z</time>
      </trkpt>
      <trkpt lat="43.641685" lon="10.628016">
        <ele>18.199091</ele>
        <time>2026-05-04T21:50:40.215Z</time>
      </trkpt>
      <trkpt lat="43.640730" lon="10.628111">
        <ele>17.867725</ele>
        <time>2026-05-04T21:51:01.034Z</time>
      </trkpt>
      <trkpt lat="43.640232" lon="10.628496">
        <ele>17.670234</ele>
        <time>2026-05-04T21:51:13.977Z</time>
      </trkpt>
      <trkpt lat="43.640014" lon="10.628718">
        <ele>17.580166</ele>
        <time>2026-05-04T21:51:20.271Z</time>
      </trkpt>
      <trkpt lat="43.639782" lon="10.629060">
        <ele>17.556854</ele>
        <time>2026-05-04T21:51:28.333Z</time>
      </trkpt>
      <trkpt lat="43.639640" lon="10.629420">
        <ele>17.536463</ele>
        <time>2026-05-04T21:51:35.433Z</time>
      </trkpt>
      <trkpt lat="43.639608" lon="10.629570">
        <ele>17.528686</ele>
        <time>2026-05-04T21:51:38.138Z</time>
      </trkpt>
      <trkpt lat="43.639546" lon="10.629871">
        <ele>17.513122</ele>
        <time>2026-05-04T21:51:43.587Z</time>
      </trkpt>
      <trkpt lat="43.639463" lon="10.630073">
        <ele>17.501570</ele>
        <time>2026-05-04T21:51:47.642Z</time>
      </trkpt>
      <trkpt lat="43.639465" lon="10.630218">
        <ele>17.494357</ele>
        <time>2026-05-04T21:51:50.180Z</time>
      </trkpt>
      <trkpt lat="43.638996" lon="10.631122">
        <ele>17.503452</ele>
        <time>2026-05-04T21:52:10.021Z</time>
      </trkpt>
      <trkpt lat="43.638868" lon="10.631772">
        <ele>17.587049</ele>
        <time>2026-05-04T21:52:22.051Z</time>
      </trkpt>
      <trkpt lat="43.638836" lon="10.631878">
        <ele>17.601302</ele>
        <time>2026-05-04T21:52:24.087Z</time>
      </trkpt>
      <trkpt lat="43.638741" lon="10.632043">
        <ele>17.627468</ele>
        <time>2026-05-04T21:52:27.851Z</time>
      </trkpt>
      <trkpt lat="43.638587" lon="10.632190">
        <ele>17.659564</ele>
        <time>2026-05-04T21:52:32.453Z</time>
      </trkpt>
      <trkpt lat="43.637491" lon="10.632823">
        <ele>17.937834</ele>
        <time>2026-05-04T21:53:03.986Z</time>
      </trkpt>
      <trkpt lat="43.636833" lon="10.633185">
        <ele>18.152299</ele>
        <time>2026-05-04T21:53:22.239Z</time>
      </trkpt>
      <trkpt lat="43.636609" lon="10.633248">
        <ele>18.221521</ele>
        <time>2026-05-04T21:53:28.105Z</time>
      </trkpt>
      <trkpt lat="43.636094" lon="10.633303">
        <ele>18.345571</ele>
        <time>2026-05-04T21:53:41.578Z</time>
      </trkpt>
      <trkpt lat="43.635384" lon="10.633149">
        <ele>18.458677</ele>
        <time>2026-05-04T21:53:59.572Z</time>
      </trkpt>
      <trkpt lat="43.635121" lon="10.633194">
        <ele>18.500384</ele>
        <time>2026-05-04T21:54:06.122Z</time>
      </trkpt>
      <trkpt lat="43.634806" lon="10.633306">
        <ele>18.551572</ele>
        <time>2026-05-04T21:54:14.375Z</time>
      </trkpt>
      <trkpt lat="43.634594" lon="10.633447">
        <ele>18.588601</ele>
        <time>2026-05-04T21:54:20.378Z</time>
      </trkpt>
      <trkpt lat="43.634104" lon="10.633901">
        <ele>18.721644</ele>
        <time>2026-05-04T21:54:35.376Z</time>
      </trkpt>
      <trkpt lat="43.633857" lon="10.633902">
        <ele>18.778305</ele>
        <time>2026-05-04T21:54:41.471Z</time>
      </trkpt>
      <trkpt lat="43.633682" lon="10.633861">
        <ele>18.819022</ele>
        <time>2026-05-04T21:54:45.874Z</time>
      </trkpt>
      <trkpt lat="43.633001" lon="10.633702">
        <ele>18.977456</ele>
        <time>2026-05-04T21:55:03.901Z</time>
      </trkpt>
      <trkpt lat="43.632865" lon="10.633739">
        <ele>19.010358</ele>
        <time>2026-05-04T21:55:07.623Z</time>
      </trkpt>
      <trkpt lat="43.632545" lon="10.634508">
        <ele>19.211238</ele>
        <time>2026-05-04T21:55:24.843Z</time>
      </trkpt>
      <trkpt lat="43.632377" lon="10.634772">
        <ele>19.290847</ele>
        <time>2026-05-04T21:55:31.665Z</time>
      </trkpt>
      <trkpt lat="43.632315" lon="10.634911">
        <ele>19.327823</ele>
        <time>2026-05-04T21:55:34.857Z</time>
      </trkpt>
      <trkpt lat="43.632171" lon="10.635325">
        <ele>19.431843</ele>
        <time>2026-05-04T21:55:43.581Z</time>
      </trkpt>
      <trkpt lat="43.632063" lon="10.635430">
        <ele>19.473163</ele>
        <time>2026-05-04T21:55:46.933Z</time>
      </trkpt>
      <trkpt lat="43.631951" lon="10.635458">
        <ele>19.508776</ele>
        <time>2026-05-04T21:55:49.794Z</time>
      </trkpt>
      <trkpt lat="43.631766" lon="10.635443">
        <ele>19.566760</ele>
        <time>2026-05-04T21:55:54.384Z</time>
      </trkpt>
      <trkpt lat="43.631649" lon="10.635410">
        <ele>19.563649</ele>
        <time>2026-05-04T21:55:57.317Z</time>
      </trkpt>
      <trkpt lat="43.631534" lon="10.635378">
        <ele>19.558064</ele>
        <time>2026-05-04T21:56:00.198Z</time>
      </trkpt>
      <trkpt lat="43.631334" lon="10.635272">
        <ele>19.547865</ele>
        <time>2026-05-04T21:56:05.455Z</time>
      </trkpt>
      <trkpt lat="43.631011" lon="10.634989">
        <ele>19.529656</ele>
        <time>2026-05-04T21:56:15.041Z</time>
      </trkpt>
      <trkpt lat="43.631000" lon="10.634979">
        <ele>19.529030</ele>
        <time>2026-05-04T21:56:15.377Z</time>
      </trkpt>
      <trkpt lat="43.630814" lon="10.634862">
        <ele>19.519300</ele>
        <time>2026-05-04T21:56:20.573Z</time>
      </trkpt>
      <trkpt lat="43.630297" lon="10.634692">
        <ele>19.493999</ele>
        <time>2026-05-04T21:56:33.266Z</time>
      </trkpt>
      <trkpt lat="43.629951" lon="10.634688">
        <ele>19.430047</ele>
        <time>2026-05-04T21:56:41.161Z</time>
      </trkpt>
      <trkpt lat="43.629733" lon="10.634720">
        <ele>19.334721</ele>
        <time>2026-05-04T21:56:46.116Z</time>
      </trkpt>
      <trkpt lat="43.629383" lon="10.634877">
        <ele>19.174711</ele>
        <time>2026-05-04T21:56:54.190Z</time>
      </trkpt>
      <trkpt lat="43.629213" lon="10.634858">
        <ele>19.100549</ele>
        <time>2026-05-04T21:56:57.876Z</time>
      </trkpt>
      <trkpt lat="43.628915" lon="10.634690">
        <ele>18.960597</ele>
        <time>2026-05-04T21:57:05.045Z</time>
      </trkpt>
      <trkpt lat="43.628254" lon="10.634421">
        <ele>18.754692</ele>
        <time>2026-05-04T21:57:21.121Z</time>
      </trkpt>
      <trkpt lat="43.627935" lon="10.634319">
        <ele>18.943454</ele>
        <time>2026-05-04T21:57:30.103Z</time>
      </trkpt>
      <trkpt lat="43.627755" lon="10.634303">
        <ele>19.047437</ele>
        <time>2026-05-04T21:57:35.259Z</time>
      </trkpt>
      <trkpt lat="43.626780" lon="10.634414">
        <ele>19.611420</ele>
        <time>2026-05-04T21:58:03.865Z</time>
      </trkpt>
      <trkpt lat="43.626374" lon="10.634429">
        <ele>19.833057</ele>
        <time>2026-05-04T21:58:15.149Z</time>
      </trkpt>
      <trkpt lat="43.626192" lon="10.634415">
        <ele>19.925907</ele>
        <time>2026-05-04T21:58:20.265Z</time>
      </trkpt>
      <trkpt lat="43.625936" lon="10.634394">
        <ele>20.056538</ele>
        <time>2026-05-04T21:58:27.505Z</time>
      </trkpt>
      <trkpt lat="43.625365" lon="10.634362">
        <ele>20.347632</ele>
        <time>2026-05-04T21:58:43.355Z</time>
      </trkpt>
      <trkpt lat="43.624538" lon="10.634297">
        <ele>20.758094</ele>
        <time>2026-05-04T21:59:04.942Z</time>
      </trkpt>
      <trkpt lat="43.624178" lon="10.634241">
        <ele>20.924249</ele>
        <time>2026-05-04T21:59:14.300Z</time>
      </trkpt>
      <trkpt lat="43.624121" lon="10.634239">
        <ele>20.950400</ele>
        <time>2026-05-04T21:59:15.793Z</time>
      </trkpt>
      <trkpt lat="43.623032" lon="10.634191">
        <ele>21.450118</ele>
        <time>2026-05-04T21:59:43.941Z</time>
      </trkpt>
      <trkpt lat="43.622102" lon="10.634111">
        <ele>22.545729</ele>
        <time>2026-05-04T22:00:15.176Z</time>
      </trkpt>
      <trkpt lat="43.621790" lon="10.634040">
        <ele>22.934137</ele>
        <time>2026-05-04T22:00:25.737Z</time>
      </trkpt>
      <trkpt lat="43.621893" lon="10.633813">
        <ele>23.172361</ele>
        <time>2026-05-04T22:00:31.789Z</time>
      </trkpt>
      <trkpt lat="43.622179" lon="10.633183">
        <ele>23.721260</ele>
        <time>2026-05-04T22:00:47.603Z</time>
      </trkpt>
      <trkpt lat="43.622445" lon="10.632599">
        <ele>23.859309</ele>
        <time>2026-05-04T22:01:01.271Z</time>
      </trkpt>
      <trkpt lat="43.622471" lon="10.632540">
        <ele>23.873129</ele>
        <time>2026-05-04T22:01:02.488Z</time>
      </trkpt>
      <trkpt lat="43.622915" lon="10.631563">
        <ele>24.103929</ele>
        <time>2026-05-04T22:01:21.293Z</time>
      </trkpt>
      <trkpt lat="43.622935" lon="10.631517">
        <ele>24.114665</ele>
        <time>2026-05-04T22:01:22.174Z</time>
      </trkpt>
      <trkpt lat="43.622870" lon="10.631450">
        <ele>24.137080</ele>
        <time>2026-05-04T22:01:24.127Z</time>
      </trkpt>
      <trkpt lat="43.622773" lon="10.631661">
        <ele>24.186305</ele>
        <time>2026-05-04T22:01:28.226Z</time>
      </trkpt>
      <trkpt lat="43.622870" lon="10.631450">
        <ele>24.206772</ele>
        <time>2026-05-04T22:01:40.774Z</time>
      </trkpt>
      <trkpt lat="43.622611" lon="10.631229">
        <ele>24.241207</ele>
        <time>2026-05-04T22:01:48.315Z</time>
      </trkpt>
      <trkpt lat="43.622416" lon="10.631149">
        <ele>24.264217</ele>
        <time>2026-05-04T22:01:53.664Z</time>
      </trkpt>
      <trkpt lat="43.621904" lon="10.631308">
        <ele>24.323578</ele>
        <time>2026-05-04T22:02:07.497Z</time>
      </trkpt>
      <trkpt lat="43.621581" lon="10.631408">
        <ele>24.361020</ele>
        <time>2026-05-04T22:02:15.727Z</time>
      </trkpt>
      <trkpt lat="43.621350" lon="10.631334">
        <ele>24.387843</ele>
        <time>2026-05-04T22:02:21.504Z</time>
      </trkpt>
      <trkpt lat="43.621344" lon="10.631301">
        <ele>24.390340</ele>
        <time>2026-05-04T22:02:22.056Z</time>
      </trkpt>
      <trkpt lat="43.621267" lon="10.631149">
        <ele>24.402419</ele>
        <time>2026-05-04T22:02:25.074Z</time>
      </trkpt>
      <trkpt lat="43.620877" lon="10.630836">
        <ele>24.442984</ele>
        <time>2026-05-04T22:02:35.227Z</time>
      </trkpt>
      <trkpt lat="43.620610" lon="10.630661">
        <ele>24.469564</ele>
        <time>2026-05-04T22:02:42.337Z</time>
      </trkpt>
      <trkpt lat="43.620595" lon="10.630652">
        <ele>24.471034</ele>
        <time>2026-05-04T22:02:42.762Z</time>
      </trkpt>
      <trkpt lat="43.620476" lon="10.630575">
        <ele>24.482853</ele>
        <time>2026-05-04T22:02:45.986Z</time>
      </trkpt>
      <trkpt lat="43.620309" lon="10.630466">
        <ele>24.499465</ele>
        <time>2026-05-04T22:02:50.385Z</time>
      </trkpt>
      <trkpt lat="43.620108" lon="10.630331">
        <ele>24.519566</ele>
        <time>2026-05-04T22:02:55.649Z</time>
      </trkpt>
      <trkpt lat="43.620015" lon="10.630342">
        <ele>24.527961</ele>
        <time>2026-05-04T22:02:57.928Z</time>
      </trkpt>
      <trkpt lat="43.619981" lon="10.630368">
        <ele>24.531456</ele>
        <time>2026-05-04T22:02:58.871Z</time>
      </trkpt>
      <trkpt lat="43.619953" lon="10.630390">
        <ele>24.534353</ele>
        <time>2026-05-04T22:02:59.672Z</time>
      </trkpt>
      <trkpt lat="43.619878" lon="10.630624">
        <ele>24.550887</ele>
        <time>2026-05-04T22:03:04.141Z</time>
      </trkpt>
      <trkpt lat="43.619827" lon="10.630796">
        <ele>24.516679</ele>
        <time>2026-05-04T22:03:07.327Z</time>
      </trkpt>
      <trkpt lat="43.619776" lon="10.630962">
        <ele>24.483489</ele>
        <time>2026-05-04T22:03:10.349Z</time>
      </trkpt>
      <trkpt lat="43.619738" lon="10.631101">
        <ele>24.456143</ele>
        <time>2026-05-04T22:03:12.883Z</time>
      </trkpt>
      <trkpt lat="43.619643" lon="10.631432">
        <ele>24.390611</ele>
        <time>2026-05-04T22:03:19.015Z</time>
      </trkpt>
      <trkpt lat="43.619583" lon="10.631640">
        <ele>24.349402</ele>
        <time>2026-05-04T22:03:22.884Z</time>
      </trkpt>
      <trkpt lat="43.619511" lon="10.631902">
        <ele>24.297824</ele>
        <time>2026-05-04T22:03:27.467Z</time>
      </trkpt>
      <trkpt lat="43.619456" lon="10.632100">
        <ele>24.258792</ele>
        <time>2026-05-04T22:03:30.860Z</time>
      </trkpt>
      <trkpt lat="43.619373" lon="10.632440">
        <ele>24.192753</ele>
        <time>2026-05-04T22:03:36.458Z</time>
      </trkpt>
      <trkpt lat="43.619284" lon="10.632793">
        <ele>24.123957</ele>
        <time>2026-05-04T22:03:42.215Z</time>
      </trkpt>
      <trkpt lat="43.619277" lon="10.632819">
        <ele>24.118851</ele>
        <time>2026-05-04T22:03:42.656Z</time>
      </trkpt>
      <trkpt lat="43.619214" lon="10.633104">
        <ele>24.053144</ele>
        <time>2026-05-04T22:03:47.008Z</time>
      </trkpt>
      <trkpt lat="43.619216" lon="10.633183">
        <ele>24.033275</ele>
        <time>2026-05-04T22:03:48.092Z</time>
      </trkpt>
      <trkpt lat="43.619253" lon="10.633270">
        <ele>24.007912</ele>
        <time>2026-05-04T22:03:49.519Z</time>
      </trkpt>
      <trkpt lat="43.619199" lon="10.633280">
        <ele>23.988996</ele>
        <time>2026-05-04T22:03:53.271Z</time>
      </trkpt>
      <trkpt lat="43.619253" lon="10.633270">
        <ele>23.970079</ele>
        <time>2026-05-04T22:03:54.328Z</time>
      </trkpt>
      <trkpt lat="43.619372" lon="10.633276">
        <ele>23.928733</ele>
        <time>2026-05-04T22:03:56.754Z</time>
      </trkpt>
      <trkpt lat="43.619900" lon="10.633425">
        <ele>23.741621</ele>
        <time>2026-05-04T22:04:08.249Z</time>
      </trkpt>
      <trkpt lat="43.619799" lon="10.633786">
        <ele>23.644341</ele>
        <time>2026-05-04T22:04:14.417Z</time>
      </trkpt>
      <trkpt lat="43.619692" lon="10.634171">
        <ele>23.540683</ele>
        <time>2026-05-04T22:04:21.896Z</time>
      </trkpt>
      <trkpt lat="43.619507" lon="10.634429">
        <ele>23.504137</ele>
        <time>2026-05-04T22:04:28.726Z</time>
      </trkpt>
      <trkpt lat="43.619193" lon="10.634815">
        <ele>23.761626</ele>
        <time>2026-05-04T22:04:39.142Z</time>
      </trkpt>
      <trkpt lat="43.618878" lon="10.635346">
        <ele>24.066070</ele>
        <time>2026-05-04T22:04:53.131Z</time>
      </trkpt>
      <trkpt lat="43.618390" lon="10.636155">
        <ele>24.533060</ele>
        <time>2026-05-04T22:05:14.281Z</time>
      </trkpt>
      <trkpt lat="43.618017" lon="10.636829">
        <ele>24.786382</ele>
        <time>2026-05-04T22:05:30.040Z</time>
      </trkpt>
      <trkpt lat="43.617999" lon="10.636873">
        <ele>24.800652</ele>
        <time>2026-05-04T22:05:30.971Z</time>
      </trkpt>
      <trkpt lat="43.617922" lon="10.637063">
        <ele>24.862130</ele>
        <time>2026-05-04T22:05:34.900Z</time>
      </trkpt>
      <trkpt lat="43.617803" lon="10.637389">
        <ele>24.965214</ele>
        <time>2026-05-04T22:05:41.542Z</time>
      </trkpt>
      <trkpt lat="43.617669" lon="10.637674">
        <ele>25.061163</ele>
        <time>2026-05-04T22:05:47.782Z</time>
      </trkpt>
      <trkpt lat="43.617524" lon="10.637920">
        <ele>25.150730</ele>
        <time>2026-05-04T22:05:53.549Z</time>
      </trkpt>
      <trkpt lat="43.616900" lon="10.638740">
        <ele>25.331223</ele>
        <time>2026-05-04T22:06:14.342Z</time>
      </trkpt>
      <trkpt lat="43.616666" lon="10.639057">
        <ele>25.366282</ele>
        <time>2026-05-04T22:06:21.827Z</time>
      </trkpt>
      <trkpt lat="43.616334" lon="10.639544">
        <ele>25.418086</ele>
        <time>2026-05-04T22:06:32.931Z</time>
      </trkpt>
      <trkpt lat="43.616009" lon="10.640154">
        <ele>25.478967</ele>
        <time>2026-05-04T22:06:46.012Z</time>
      </trkpt>
      <trkpt lat="43.615851" lon="10.640389">
        <ele>25.508472</ele>
        <time>2026-05-04T22:06:51.522Z</time>
      </trkpt>
      <trkpt lat="43.615655" lon="10.640578">
        <ele>25.538847</ele>
        <time>2026-05-04T22:06:57.220Z</time>
      </trkpt>
      <trkpt lat="43.615229" lon="10.640890">
        <ele>25.600120</ele>
        <time>2026-05-04T22:07:08.802Z</time>
      </trkpt>
      <trkpt lat="43.614859" lon="10.641148">
        <ele>25.652790</ele>
        <time>2026-05-04T22:07:18.615Z</time>
      </trkpt>
      <trkpt lat="43.614428" lon="10.641438">
        <ele>25.771918</ele>
        <time>2026-05-04T22:07:30.157Z</time>
      </trkpt>
      <trkpt lat="43.614038" lon="10.641644">
        <ele>25.977390</ele>
        <time>2026-05-04T22:07:40.263Z</time>
      </trkpt>
      <trkpt lat="43.613532" lon="10.641831">
        <ele>26.235150</ele>
        <time>2026-05-04T22:07:53.525Z</time>
      </trkpt>
      <trkpt lat="43.613306" lon="10.641951">
        <ele>26.354298</ele>
        <time>2026-05-04T22:07:59.934Z</time>
      </trkpt>
      <trkpt lat="43.612841" lon="10.642364">
        <ele>26.646863</ele>
        <time>2026-05-04T22:08:15.572Z</time>
      </trkpt>
      <trkpt lat="43.612629" lon="10.642502">
        <ele>26.811687</ele>
        <time>2026-05-04T22:08:22.323Z</time>
      </trkpt>
      <trkpt lat="43.612025" lon="10.642697">
        <ele>27.247918</ele>
        <time>2026-05-04T22:08:40.341Z</time>
      </trkpt>
      <trkpt lat="43.611916" lon="10.642735">
        <ele>27.326980</ele>
        <time>2026-05-04T22:08:43.520Z</time>
      </trkpt>
      <trkpt lat="43.611547" lon="10.642925">
        <ele>27.603938</ele>
        <time>2026-05-04T22:08:53.903Z</time>
      </trkpt>
      <trkpt lat="43.611200" lon="10.643013">
        <ele>27.851840</ele>
        <time>2026-05-04T22:09:02.185Z</time>
      </trkpt>
      <trkpt lat="43.611148" lon="10.643021">
        <ele>27.887713</ele>
        <time>2026-05-04T22:09:03.396Z</time>
      </trkpt>
      <trkpt lat="43.610943" lon="10.643018">
        <ele>28.028270</ele>
        <time>2026-05-04T22:09:08.207Z</time>
      </trkpt>
      <trkpt lat="43.610695" lon="10.642936">
        <ele>28.203106</ele>
        <time>2026-05-04T22:09:14.969Z</time>
      </trkpt>
      <trkpt lat="43.610590" lon="10.642803">
        <ele>28.300786</ele>
        <time>2026-05-04T22:09:18.990Z</time>
      </trkpt>
      <trkpt lat="43.610426" lon="10.642722">
        <ele>28.420200</ele>
        <time>2026-05-04T22:09:24.159Z</time>
      </trkpt>
      <trkpt lat="43.610253" lon="10.642744">
        <ele>28.539312</ele>
        <time>2026-05-04T22:09:29.687Z</time>
      </trkpt>
      <trkpt lat="43.610103" lon="10.642864">
        <ele>28.658160</ele>
        <time>2026-05-04T22:09:35.426Z</time>
      </trkpt>
      <trkpt lat="43.610001" lon="10.643068">
        <ele>28.781229</ele>
        <time>2026-05-04T22:09:41.072Z</time>
      </trkpt>
      <trkpt lat="43.609974" lon="10.643313">
        <ele>28.904252</ele>
        <time>2026-05-04T22:09:46.168Z</time>
      </trkpt>
      <trkpt lat="43.610008" lon="10.643502">
        <ele>29.000927</ele>
        <time>2026-05-04T22:09:49.793Z</time>
      </trkpt>
      <trkpt lat="43.610087" lon="10.643663">
        <ele>29.033930</ele>
        <time>2026-05-04T22:09:53.212Z</time>
      </trkpt>
      <trkpt lat="43.609933" lon="10.643890">
        <ele>28.716731</ele>
        <time>2026-05-04T22:09:58.294Z</time>
      </trkpt>
      <trkpt lat="43.609898" lon="10.643952">
        <ele>28.636565</ele>
        <time>2026-05-04T22:10:00.393Z</time>
      </trkpt>
      <trkpt lat="43.609732" lon="10.644032">
        <ele>28.388962</ele>
        <time>2026-05-04T22:10:06.785Z</time>
      </trkpt>
      <trkpt lat="43.609603" lon="10.643922">
        <ele>28.175452</ele>
        <time>2026-05-04T22:10:12.130Z</time>
      </trkpt>
      <trkpt lat="43.609362" lon="10.643212">
        <ele>27.375857</ele>
        <time>2026-05-04T22:10:30.634Z</time>
      </trkpt>
      <trkpt lat="43.609219" lon="10.643010">
        <ele>27.087786</ele>
        <time>2026-05-04T22:10:37.075Z</time>
      </trkpt>
      <trkpt lat="43.609107" lon="10.642966">
        <ele>26.923798</ele>
        <time>2026-05-04T22:10:40.661Z</time>
      </trkpt>
      <trkpt lat="43.608539" lon="10.642882">
        <ele>26.550978</ele>
        <time>2026-05-04T22:10:58.790Z</time>
      </trkpt>
      <trkpt lat="43.605530" lon="10.642439">
        <ele>27.534458</ele>
        <time>2026-05-04T22:13:08.921Z</time>
      </trkpt>
      <trkpt lat="43.598622" lon="10.642299">
        <ele>28.419631</ele>
        <time>2026-05-04T22:17:31.500Z</time>
      </trkpt>
      <trkpt lat="43.598235" lon="10.643181">
        <ele>29.173523</ele>
        <time>2026-05-04T22:17:57.837Z</time>
      </trkpt>
      <trkpt lat="43.597994" lon="10.643871">
        <ele>30.345094</ele>
        <time>2026-05-04T22:18:19.578Z</time>
      </trkpt>
      <trkpt lat="43.597771" lon="10.644423">
        <ele>31.311766</ele>
        <time>2026-05-04T22:18:36.865Z</time>
      </trkpt>
      <trkpt lat="43.597759" lon="10.644486">
        <ele>31.411393</ele>
        <time>2026-05-04T22:18:39.229Z</time>
      </trkpt>
      <trkpt lat="43.597784" lon="10.644580">
        <ele>31.564540</ele>
        <time>2026-05-04T22:18:42.913Z</time>
      </trkpt>
      <trkpt lat="43.598242" lon="10.645327">
        <ele>33.460595</ele>
        <time>2026-05-04T22:19:17.907Z</time>
      </trkpt>
      <trkpt lat="43.598702" lon="10.645994">
        <ele>36.009814</ele>
        <time>2026-05-04T22:19:53.703Z</time>
      </trkpt>
      <trkpt lat="43.598814" lon="10.646219">
        <ele>36.765464</ele>
        <time>2026-05-04T22:20:05.355Z</time>
      </trkpt>
      <trkpt lat="43.598830" lon="10.646308">
        <ele>37.019263</ele>
        <time>2026-05-04T22:20:09.422Z</time>
      </trkpt>
      <trkpt lat="43.598821" lon="10.646418">
        <ele>37.325645</ele>
        <time>2026-05-04T22:20:14.450Z</time>
      </trkpt>
      <trkpt lat="43.598723" lon="10.646737">
        <ele>38.284690</ele>
        <time>2026-05-04T22:20:31.172Z</time>
      </trkpt>
      <trkpt lat="43.598546" lon="10.647313">
        <ele>40.689042</ele>
        <time>2026-05-04T22:21:05.121Z</time>
      </trkpt>
      <trkpt lat="43.598482" lon="10.647674">
        <ele>42.922925</ele>
        <time>2026-05-04T22:21:27.642Z</time>
      </trkpt>
      <trkpt lat="43.598478" lon="10.647864">
        <ele>44.065415</ele>
        <time>2026-05-04T22:21:39.776Z</time>
      </trkpt>
      <trkpt lat="43.598652" lon="10.648356">
        <ele>47.356394</ele>
        <time>2026-05-04T22:22:16.682Z</time>
      </trkpt>
      <trkpt lat="43.598892" lon="10.648886">
        <ele>51.113483</ele>
        <time>2026-05-04T22:23:01.024Z</time>
      </trkpt>
      <trkpt lat="43.598940" lon="10.649064">
        <ele>52.255121</ele>
        <time>2026-05-04T22:23:14.291Z</time>
      </trkpt>
      <trkpt lat="43.598958" lon="10.649336">
        <ele>53.896792</ele>
        <time>2026-05-04T22:23:32.853Z</time>
      </trkpt>
      <trkpt lat="43.598918" lon="10.649584">
        <ele>55.029732</ele>
        <time>2026-05-04T22:23:49.486Z</time>
      </trkpt>
      <trkpt lat="43.598843" lon="10.649792">
        <ele>55.903651</ele>
        <time>2026-05-04T22:24:03.870Z</time>
      </trkpt>
      <trkpt lat="43.598785" lon="10.649895">
        <ele>56.394377</ele>
        <time>2026-05-04T22:24:11.591Z</time>
      </trkpt>
      <trkpt lat="43.598622" lon="10.650076">
        <ele>57.480697</ele>
        <time>2026-05-04T22:24:27.932Z</time>
      </trkpt>
      <trkpt lat="43.598314" lon="10.650193">
        <ele>59.139743</ele>
        <time>2026-05-04T22:24:50.862Z</time>
      </trkpt>
      <trkpt lat="43.598033" lon="10.650300">
        <ele>60.653610</ele>
        <time>2026-05-04T22:25:09.732Z</time>
      </trkpt>
      <trkpt lat="43.597833" lon="10.650443">
        <ele>61.823314</ele>
        <time>2026-05-04T22:25:22.904Z</time>
      </trkpt>
      <trkpt lat="43.597754" lon="10.650585">
        <ele>62.496804</ele>
        <time>2026-05-04T22:25:29.895Z</time>
      </trkpt>
      <trkpt lat="43.596956" lon="10.652611">
        <ele>65.979623</ele>
        <time>2026-05-04T22:26:50.911Z</time>
      </trkpt>
      <trkpt lat="43.596695" lon="10.652710">
        <ele>66.406974</ele>
        <time>2026-05-04T22:27:02.941Z</time>
      </trkpt>
      <trkpt lat="43.596508" lon="10.652842">
        <ele>66.508083</ele>
        <time>2026-05-04T22:27:11.923Z</time>
      </trkpt>
      <trkpt lat="43.596397" lon="10.652986">
        <ele>66.451734</ele>
        <time>2026-05-04T22:27:18.249Z</time>
      </trkpt>
      <trkpt lat="43.596189" lon="10.653534">
        <ele>66.285958</ele>
        <time>2026-05-04T22:27:35.876Z</time>
      </trkpt>
      <trkpt lat="43.595150" lon="10.654231">
        <ele>65.722826</ele>
        <time>2026-05-04T22:28:16.853Z</time>
      </trkpt>
      <trkpt lat="43.594396" lon="10.654475">
        <ele>64.036936</ele>
        <time>2026-05-04T22:28:42.571Z</time>
      </trkpt>
      <trkpt lat="43.593652" lon="10.654650">
        <ele>62.393960</ele>
        <time>2026-05-04T22:29:06.244Z</time>
      </trkpt>
      <trkpt lat="43.593573" lon="10.654704">
        <ele>62.202061</ele>
        <time>2026-05-04T22:29:08.996Z</time>
      </trkpt>
      <trkpt lat="43.593432" lon="10.654801">
        <ele>61.947627</ele>
        <time>2026-05-04T22:29:13.949Z</time>
      </trkpt>
      <trkpt lat="43.593063" lon="10.655197">
        <ele>61.736175</ele>
        <time>2026-05-04T22:29:28.926Z</time>
      </trkpt>
      <trkpt lat="43.592664" lon="10.656137">
        <ele>61.379144</ele>
        <time>2026-05-04T22:29:56.512Z</time>
      </trkpt>
      <trkpt lat="43.592465" lon="10.656699">
        <ele>61.174151</ele>
        <time>2026-05-04T22:30:18.621Z</time>
      </trkpt>
      <trkpt lat="43.592238" lon="10.657070">
        <ele>61.834066</ele>
        <time>2026-05-04T22:30:39.259Z</time>
      </trkpt>
      <trkpt lat="43.592121" lon="10.657334">
        <ele>62.317428</ele>
        <time>2026-05-04T22:30:53.340Z</time>
      </trkpt>
      <trkpt lat="43.592037" lon="10.657643">
        <ele>62.832878</ele>
        <time>2026-05-04T22:31:08.413Z</time>
      </trkpt>
      <trkpt lat="43.591911" lon="10.658347">
        <ele>63.965417</ele>
        <time>2026-05-04T22:31:38.441Z</time>
      </trkpt>
      <trkpt lat="43.591867" lon="10.658524">
        <ele>64.257675</ele>
        <time>2026-05-04T22:31:45.160Z</time>
      </trkpt>
      <trkpt lat="43.591777" lon="10.658738">
        <ele>64.644148</ele>
        <time>2026-05-04T22:31:53.317Z</time>
      </trkpt>
      <trkpt lat="43.591628" lon="10.658916">
        <ele>64.993785</ele>
        <time>2026-05-04T22:32:01.167Z</time>
      </trkpt>
      <trkpt lat="43.591424" lon="10.659082">
        <ele>64.358944</ele>
        <time>2026-05-04T22:32:09.530Z</time>
      </trkpt>
      <trkpt lat="43.590727" lon="10.659545">
        <ele>62.285267</ele>
        <time>2026-05-04T22:32:33.484Z</time>
      </trkpt>
      <trkpt lat="43.589769" lon="10.660353">
        <ele>59.743053</ele>
        <time>2026-05-04T22:33:07.064Z</time>
      </trkpt>
      <trkpt lat="43.589035" lon="10.661217">
        <ele>58.446223</ele>
        <time>2026-05-04T22:33:39.777Z</time>
      </trkpt>
      <trkpt lat="43.588443" lon="10.662262">
        <ele>58.911997</ele>
        <time>2026-05-04T22:34:21.672Z</time>
      </trkpt>
      <trkpt lat="43.588295" lon="10.662518">
        <ele>59.467957</ele>
        <time>2026-05-04T22:34:30.564Z</time>
      </trkpt>
      <trkpt lat="43.588100" lon="10.663106">
        <ele>60.565635</ele>
        <time>2026-05-04T22:34:49.032Z</time>
      </trkpt>
      <trkpt lat="43.587528" lon="10.663989">
        <ele>63.440495</ele>
        <time>2026-05-04T22:35:39.385Z</time>
      </trkpt>
      <trkpt lat="43.587494" lon="10.664122">
        <ele>64.045162</ele>
        <time>2026-05-04T22:35:45.930Z</time>
      </trkpt>
      <trkpt lat="43.587343" lon="10.664304">
        <ele>65.231592</ele>
        <time>2026-05-04T22:35:58.921Z</time>
      </trkpt>
      <trkpt lat="43.587223" lon="10.664402">
        <ele>66.056821</ele>
        <time>2026-05-04T22:36:08.297Z</time>
      </trkpt>
      <trkpt lat="43.586975" lon="10.664878">
        <ele>68.570626</ele>
        <time>2026-05-04T22:36:39.650Z</time>
      </trkpt>
      <trkpt lat="43.586713" lon="10.665162">
        <ele>70.542255</ele>
        <time>2026-05-04T22:37:07.211Z</time>
      </trkpt>
      <trkpt lat="43.586457" lon="10.665365">
        <ele>72.289650</ele>
        <time>2026-05-04T22:37:32.696Z</time>
      </trkpt>
      <trkpt lat="43.586332" lon="10.665538">
        <ele>73.506538</ele>
        <time>2026-05-04T22:37:48.128Z</time>
      </trkpt>
      <trkpt lat="43.586208" lon="10.665797">
        <ele>75.168282</ele>
        <time>2026-05-04T22:38:07.942Z</time>
      </trkpt>
      <trkpt lat="43.586034" lon="10.666083">
        <ele>77.167426</ele>
        <time>2026-05-04T22:38:31.700Z</time>
      </trkpt>
      <trkpt lat="43.586022" lon="10.666156">
        <ele>77.568093</ele>
        <time>2026-05-04T22:38:36.560Z</time>
      </trkpt>
      <trkpt lat="43.586045" lon="10.666349">
        <ele>78.615011</ele>
        <time>2026-05-04T22:38:49.294Z</time>
      </trkpt>
      <trkpt lat="43.585871" lon="10.666439">
        <ele>79.988058</ele>
        <time>2026-05-04T22:39:03.517Z</time>
      </trkpt>
      <trkpt lat="43.585431" lon="10.666936">
        <ele>84.189019</ele>
        <time>2026-05-04T22:39:45.951Z</time>
      </trkpt>
      <trkpt lat="43.585302" lon="10.667017">
        <ele>85.236225</ele>
        <time>2026-05-04T22:39:54.683Z</time>
      </trkpt>
      <trkpt lat="43.584673" lon="10.667553">
        <ele>86.704880</ele>
        <time>2026-05-04T22:40:26.727Z</time>
      </trkpt>
      <trkpt lat="43.584572" lon="10.667693">
        <ele>86.873577</ele>
        <time>2026-05-04T22:40:31.066Z</time>
      </trkpt>
      <trkpt lat="43.584541" lon="10.667703">
        <ele>86.911100</ele>
        <time>2026-05-04T22:40:32.063Z</time>
      </trkpt>
      <trkpt lat="43.584444" lon="10.668176">
        <ele>87.330807</ele>
        <time>2026-05-04T22:40:45.475Z</time>
      </trkpt>
      <trkpt lat="43.584362" lon="10.668401">
        <ele>87.545850</ele>
        <time>2026-05-04T22:40:51.974Z</time>
      </trkpt>
      <trkpt lat="43.584265" lon="10.668567">
        <ele>87.727944</ele>
        <time>2026-05-04T22:40:57.322Z</time>
      </trkpt>
      <trkpt lat="43.584092" lon="10.669080">
        <ele>87.948647</ele>
        <time>2026-05-04T22:41:10.912Z</time>
      </trkpt>
      <trkpt lat="43.583884" lon="10.669345">
        <ele>87.674552</ele>
        <time>2026-05-04T22:41:20.280Z</time>
      </trkpt>
      <trkpt lat="43.583761" lon="10.669450">
        <ele>87.534505</ele>
        <time>2026-05-04T22:41:25.400Z</time>
      </trkpt>
      <trkpt lat="43.583189" lon="10.669903">
        <ele>86.895904</ele>
        <time>2026-05-04T22:41:49.454Z</time>
      </trkpt>
      <trkpt lat="43.582983" lon="10.670176">
        <ele>86.619371</ele>
        <time>2026-05-04T22:41:59.825Z</time>
      </trkpt>
      <trkpt lat="43.582691" lon="10.670402">
        <ele>86.280285</ele>
        <time>2026-05-04T22:42:11.780Z</time>
      </trkpt>
      <trkpt lat="43.582493" lon="10.670520">
        <ele>85.967741</ele>
        <time>2026-05-04T22:42:19.165Z</time>
      </trkpt>
      <trkpt lat="43.582124" lon="10.670949">
        <ele>85.268597</ele>
        <time>2026-05-04T22:42:35.338Z</time>
      </trkpt>
      <trkpt lat="43.581541" lon="10.671078">
        <ele>84.412913</ele>
        <time>2026-05-04T22:42:55.329Z</time>
      </trkpt>
      <trkpt lat="43.581358" lon="10.671271">
        <ele>84.079164</ele>
        <time>2026-05-04T22:43:03.182Z</time>
      </trkpt>
      <trkpt lat="43.580915" lon="10.671877">
        <ele>82.658408</ele>
        <time>2026-05-04T22:43:24.484Z</time>
      </trkpt>
      <trkpt lat="43.580321" lon="10.672883">
        <ele>79.999346</ele>
        <time>2026-05-04T22:43:54.441Z</time>
      </trkpt>
      <trkpt lat="43.580565" lon="10.673578">
        <ele>78.320572</ele>
        <time>2026-05-04T22:44:03.660Z</time>
      </trkpt>
      <trkpt lat="43.580624" lon="10.673836">
        <ele>77.517072</ele>
        <time>2026-05-04T22:44:06.863Z</time>
      </trkpt>
      <trkpt lat="43.580687" lon="10.674670">
        <ele>75.026773</ele>
        <time>2026-05-04T22:44:16.673Z</time>
      </trkpt>
      <trkpt lat="43.581014" lon="10.676151">
        <ele>70.597259</ele>
        <time>2026-05-04T22:44:35.266Z</time>
      </trkpt>
      <trkpt lat="43.581120" lon="10.676802">
        <ele>69.018762</ele>
        <time>2026-05-04T22:44:44.183Z</time>
      </trkpt>
      <trkpt lat="43.581173" lon="10.677307">
        <ele>67.811611</ele>
        <time>2026-05-04T22:44:51.330Z</time>
      </trkpt>
      <trkpt lat="43.581235" lon="10.677906">
        <ele>66.380167</ele>
        <time>2026-05-04T22:44:59.226Z</time>
      </trkpt>
      <trkpt lat="43.581285" lon="10.678209">
        <ele>65.644999</ele>
        <time>2026-05-04T22:45:02.972Z</time>
      </trkpt>
      <trkpt lat="43.581346" lon="10.678391">
        <ele>64.809098</ele>
        <time>2026-05-04T22:45:05.301Z</time>
      </trkpt>
      <trkpt lat="43.581217" lon="10.678867">
        <ele>61.566614</ele>
        <time>2026-05-04T22:45:11.274Z</time>
      </trkpt>
      <trkpt lat="43.581118" lon="10.679440">
        <ele>57.808282</ele>
        <time>2026-05-04T22:45:17.857Z</time>
      </trkpt>
      <trkpt lat="43.581126" lon="10.679545">
        <ele>57.134677</ele>
        <time>2026-05-04T22:45:19.012Z</time>
      </trkpt>
      <trkpt lat="43.581254" lon="10.679976">
        <ele>54.162741</ele>
        <time>2026-05-04T22:45:24.088Z</time>
      </trkpt>
      <trkpt lat="43.581168" lon="10.680353">
        <ele>51.641008</ele>
        <time>2026-05-04T22:45:28.360Z</time>
      </trkpt>
      <trkpt lat="43.581180" lon="10.680417">
        <ele>51.219227</ele>
        <time>2026-05-04T22:45:29.069Z</time>
      </trkpt>
      <trkpt lat="43.581238" lon="10.680513">
        <ele>50.421675</ele>
        <time>2026-05-04T22:45:30.429Z</time>
      </trkpt>
      <trkpt lat="43.581417" lon="10.680699">
        <ele>48.759227</ele>
        <time>2026-05-04T22:45:33.817Z</time>
      </trkpt>
      <trkpt lat="43.580946" lon="10.681638">
        <ele>43.542876</ele>
        <time>2026-05-04T22:45:46.852Z</time>
      </trkpt>
      <trkpt lat="43.581018" lon="10.682023">
        <ele>41.726851</ele>
        <time>2026-05-04T22:45:51.845Z</time>
      </trkpt>
      <trkpt lat="43.581109" lon="10.682412">
        <ele>39.859868</ele>
        <time>2026-05-04T22:45:57.134Z</time>
      </trkpt>
      <trkpt lat="43.580526" lon="10.682624">
        <ele>37.678809</ele>
        <time>2026-05-04T22:46:08.041Z</time>
      </trkpt>
      <trkpt lat="43.580267" lon="10.682662">
        <ele>37.277874</ele>
        <time>2026-05-04T22:46:13.057Z</time>
      </trkpt>
      <trkpt lat="43.580032" lon="10.682603">
        <ele>36.910195</ele>
        <time>2026-05-04T22:46:17.694Z</time>
      </trkpt>
      <trkpt lat="43.580020" lon="10.682595">
        <ele>36.889682</ele>
        <time>2026-05-04T22:46:17.953Z</time>
      </trkpt>
      <trkpt lat="43.579917" lon="10.682574">
        <ele>36.729410</ele>
        <time>2026-05-04T22:46:20.042Z</time>
      </trkpt>
      <trkpt lat="43.579806" lon="10.682654">
        <ele>36.536656</ele>
        <time>2026-05-04T22:46:22.587Z</time>
      </trkpt>
      <trkpt lat="43.579773" lon="10.682724">
        <ele>36.443524</ele>
        <time>2026-05-04T22:46:23.883Z</time>
      </trkpt>
      <trkpt lat="43.579763" lon="10.682897">
        <ele>36.249995</ele>
        <time>2026-05-04T22:46:26.462Z</time>
      </trkpt>
      <trkpt lat="43.579835" lon="10.683039">
        <ele>36.056714</ele>
        <time>2026-05-04T22:46:29.038Z</time>
      </trkpt>
      <trkpt lat="43.579881" lon="10.683071">
        <ele>35.977421</ele>
        <time>2026-05-04T22:46:30.135Z</time>
      </trkpt>
      <trkpt lat="43.579959" lon="10.683303">
        <ele>35.692208</ele>
        <time>2026-05-04T22:46:33.921Z</time>
      </trkpt>
      <trkpt lat="43.580011" lon="10.683752">
        <ele>35.267049</ele>
        <time>2026-05-04T22:46:40.516Z</time>
      </trkpt>
      <trkpt lat="43.580030" lon="10.684096">
        <ele>35.009247</ele>
        <time>2026-05-04T22:46:45.454Z</time>
      </trkpt>
      <trkpt lat="43.580106" lon="10.685509">
        <ele>33.950472</ele>
        <time>2026-05-04T22:47:05.946Z</time>
      </trkpt>
      <trkpt lat="43.580153" lon="10.686507">
        <ele>33.602793</ele>
        <time>2026-05-04T22:47:20.681Z</time>
      </trkpt>
      <trkpt lat="43.580366" lon="10.691116">
        <ele>34.670372</ele>
        <time>2026-05-04T22:48:46.199Z</time>
      </trkpt>
      <trkpt lat="43.580411" lon="10.691827">
        <ele>35.071005</ele>
        <time>2026-05-04T22:49:01.610Z</time>
      </trkpt>
      <trkpt lat="43.580452" lon="10.692135">
        <ele>35.246793</ele>
        <time>2026-05-04T22:49:08.384Z</time>
      </trkpt>
      <trkpt lat="43.580397" lon="10.692148">
        <ele>35.290032</ele>
        <time>2026-05-04T22:49:10.410Z</time>
      </trkpt>
      <trkpt lat="43.580425" lon="10.692788">
        <ele>35.649944</ele>
        <time>2026-05-04T22:49:30.721Z</time>
      </trkpt>
      <trkpt lat="43.580607" lon="10.693496">
        <ele>35.995938</ele>
        <time>2026-05-04T22:49:53.077Z</time>
      </trkpt>
      <trkpt lat="43.580139" lon="10.693818">
        <ele>36.075122</ele>
        <time>2026-05-04T22:50:13.319Z</time>
      </trkpt>
      <trkpt lat="43.579381" lon="10.694223">
        <ele>36.198205</ele>
        <time>2026-05-04T22:50:44.622Z</time>
      </trkpt>
      <trkpt lat="43.578798" lon="10.694722">
        <ele>36.255839</ele>
        <time>2026-05-04T22:51:11.053Z</time>
      </trkpt>
      <trkpt lat="43.578768" lon="10.694777">
        <ele>36.256696</ele>
        <time>2026-05-04T22:51:12.970Z</time>
      </trkpt>
      <trkpt lat="43.578741" lon="10.694955">
        <ele>36.258961</ele>
        <time>2026-05-04T22:51:18.032Z</time>
      </trkpt>
      <trkpt lat="43.578835" lon="10.695623">
        <ele>36.267435</ele>
        <time>2026-05-04T22:51:36.950Z</time>
      </trkpt>
      <trkpt lat="43.578832" lon="10.695803">
        <ele>36.269677</ele>
        <time>2026-05-04T22:51:41.923Z</time>
      </trkpt>
      <trkpt lat="43.578689" lon="10.696698">
        <ele>36.283267</ele>
        <time>2026-05-04T22:52:06.992Z</time>
      </trkpt>
      <trkpt lat="43.578620" lon="10.696843">
        <ele>36.303909</ele>
        <time>2026-05-04T22:52:11.757Z</time>
      </trkpt>
      <trkpt lat="43.578552" lon="10.696907">
        <ele>36.317427</ele>
        <time>2026-05-04T22:52:14.899Z</time>
      </trkpt>
      <trkpt lat="43.578181" lon="10.697110">
        <ele>36.382976</ele>
        <time>2026-05-04T22:52:30.213Z</time>
      </trkpt>
      <trkpt lat="43.577921" lon="10.697366">
        <ele>36.435431</ele>
        <time>2026-05-04T22:52:42.649Z</time>
      </trkpt>
      <trkpt lat="43.577837" lon="10.697569">
        <ele>36.463249</ele>
        <time>2026-05-04T22:52:49.311Z</time>
      </trkpt>
      <trkpt lat="43.577741" lon="10.698431">
        <ele>36.567022</ele>
        <time>2026-05-04T22:53:14.617Z</time>
      </trkpt>
      <trkpt lat="43.577590" lon="10.698916">
        <ele>36.691365</ele>
        <time>2026-05-04T22:53:30.249Z</time>
      </trkpt>
      <trkpt lat="43.577438" lon="10.699402">
        <ele>36.826696</ele>
        <time>2026-05-04T22:53:46.068Z</time>
      </trkpt>
      <trkpt lat="43.577355" lon="10.699528">
        <ele>36.870234</ele>
        <time>2026-05-04T22:53:51.122Z</time>
      </trkpt>
      <trkpt lat="43.577045" lon="10.699717">
        <ele>36.989827</ele>
        <time>2026-05-04T22:54:04.776Z</time>
      </trkpt>
      <trkpt lat="43.576720" lon="10.700093">
        <ele>37.139474</ele>
        <time>2026-05-04T22:54:21.528Z</time>
      </trkpt>
      <trkpt lat="43.576585" lon="10.700343">
        <ele>37.214248</ele>
        <time>2026-05-04T22:54:30.409Z</time>
      </trkpt>
      <trkpt lat="43.576562" lon="10.700573">
        <ele>37.237822</ele>
        <time>2026-05-04T22:54:36.955Z</time>
      </trkpt>
      <trkpt lat="43.576506" lon="10.700699">
        <ele>37.252830</ele>
        <time>2026-05-04T22:54:41.077Z</time>
      </trkpt>
      <trkpt lat="43.576155" lon="10.700937">
        <ele>37.307637</ele>
        <time>2026-05-04T22:54:56.098Z</time>
      </trkpt>
      <trkpt lat="43.575841" lon="10.701255">
        <ele>37.362217</ele>
        <time>2026-05-04T22:55:10.905Z</time>
      </trkpt>
      <trkpt lat="43.575680" lon="10.701381">
        <ele>37.388155</ele>
        <time>2026-05-04T22:55:17.920Z</time>
      </trkpt>
      <trkpt lat="43.575206" lon="10.701667">
        <ele>37.460655</ele>
        <time>2026-05-04T22:55:38.166Z</time>
      </trkpt>
      <trkpt lat="43.575126" lon="10.701685">
        <ele>37.494665</ele>
        <time>2026-05-04T22:55:41.450Z</time>
      </trkpt>
      <trkpt lat="43.574728" lon="10.701662">
        <ele>37.691848</ele>
        <time>2026-05-04T22:55:57.717Z</time>
      </trkpt>
      <trkpt lat="43.574562" lon="10.701725">
        <ele>37.777067</ele>
        <time>2026-05-04T22:56:04.864Z</time>
      </trkpt>
      <trkpt lat="43.574328" lon="10.701887">
        <ele>37.906650</ele>
        <time>2026-05-04T22:56:15.893Z</time>
      </trkpt>
      <trkpt lat="43.573982" lon="10.702189">
        <ele>38.109291</ele>
        <time>2026-05-04T22:56:33.112Z</time>
      </trkpt>
      <trkpt lat="43.573670" lon="10.702538">
        <ele>38.308078</ele>
        <time>2026-05-04T22:56:49.991Z</time>
      </trkpt>
      <trkpt lat="43.573627" lon="10.702581">
        <ele>38.334362</ele>
        <time>2026-05-04T22:56:52.207Z</time>
      </trkpt>
      <trkpt lat="43.573455" lon="10.702653">
        <ele>38.391257</ele>
        <time>2026-05-04T22:56:59.688Z</time>
      </trkpt>
      <trkpt lat="43.572313" lon="10.702977">
        <ele>38.703672</ele>
        <time>2026-05-04T22:57:46.018Z</time>
      </trkpt>
      <trkpt lat="43.571974" lon="10.703104">
        <ele>38.797799</ele>
        <time>2026-05-04T22:57:59.387Z</time>
      </trkpt>
      <trkpt lat="43.570906" lon="10.704055">
        <ele>39.168027</ele>
        <time>2026-05-04T22:58:48.907Z</time>
      </trkpt>
      <trkpt lat="43.570631" lon="10.704306">
        <ele>39.265019</ele>
        <time>2026-05-04T22:59:02.449Z</time>
      </trkpt>
      <trkpt lat="43.570368" lon="10.704480">
        <ele>39.350820</ele>
        <time>2026-05-04T22:59:14.557Z</time>
      </trkpt>
      <trkpt lat="43.569890" lon="10.704674">
        <ele>39.570120</ele>
        <time>2026-05-04T22:59:35.367Z</time>
      </trkpt>
      <trkpt lat="43.569072" lon="10.704726">
        <ele>39.942863</ele>
        <time>2026-05-04T23:00:09.351Z</time>
      </trkpt>
      <trkpt lat="43.568471" lon="10.704780">
        <ele>40.199876</ele>
        <time>2026-05-04T23:00:33.221Z</time>
      </trkpt>
      <trkpt lat="43.568362" lon="10.704931">
        <ele>40.234497</ele>
        <time>2026-05-04T23:00:39.267Z</time>
      </trkpt>
      <trkpt lat="43.568330" lon="10.705037">
        <ele>40.253149</ele>
        <time>2026-05-04T23:00:42.524Z</time>
      </trkpt>
      <trkpt lat="43.568281" lon="10.705590">
        <ele>40.343641</ele>
        <time>2026-05-04T23:00:58.366Z</time>
      </trkpt>
      <trkpt lat="43.567752" lon="10.707009">
        <ele>40.608229</ele>
        <time>2026-05-04T23:01:43.918Z</time>
      </trkpt>
      <trkpt lat="43.567346" lon="10.707797">
        <ele>40.816862</ele>
        <time>2026-05-04T23:02:11.946Z</time>
      </trkpt>
      <trkpt lat="43.567014" lon="10.708320">
        <ele>40.966896</ele>
        <time>2026-05-04T23:02:32.216Z</time>
      </trkpt>
      <trkpt lat="43.566817" lon="10.708666">
        <ele>41.061846</ele>
        <time>2026-05-04T23:02:44.910Z</time>
      </trkpt>
      <trkpt lat="43.566598" lon="10.709149">
        <ele>41.169927</ele>
        <time>2026-05-04T23:03:01.271Z</time>
      </trkpt>
      <trkpt lat="43.566345" lon="10.709065">
        <ele>41.229049</ele>
        <time>2026-05-04T23:03:07.912Z</time>
      </trkpt>
      <trkpt lat="43.566124" lon="10.709074">
        <ele>41.279283</ele>
        <time>2026-05-04T23:03:13.566Z</time>
      </trkpt>
      <trkpt lat="43.565975" lon="10.709126">
        <ele>41.314203</ele>
        <time>2026-05-04T23:03:17.485Z</time>
      </trkpt>
      <trkpt lat="43.565740" lon="10.709275">
        <ele>41.372961</ele>
        <time>2026-05-04T23:03:24.085Z</time>
      </trkpt>
      <trkpt lat="43.565441" lon="10.709627">
        <ele>41.462253</ele>
        <time>2026-05-04T23:03:34.052Z</time>
      </trkpt>
      <trkpt lat="43.565186" lon="10.710149">
        <ele>41.579899</ele>
        <time>2026-05-04T23:03:45.822Z</time>
      </trkpt>
      <trkpt lat="43.565021" lon="10.710347">
        <ele>41.649370</ele>
        <time>2026-05-04T23:03:51.559Z</time>
      </trkpt>
      <trkpt lat="43.562291" lon="10.711417">
        <ele>42.619965</ele>
        <time>2026-05-04T23:05:06.472Z</time>
      </trkpt>
      <trkpt lat="43.562166" lon="10.711456">
        <ele>42.666934</ele>
        <time>2026-05-04T23:05:09.837Z</time>
      </trkpt>
      <trkpt lat="43.561767" lon="10.711435">
        <ele>42.812245</ele>
        <time>2026-05-04T23:05:20.347Z</time>
      </trkpt>
      <trkpt lat="43.561499" lon="10.711453">
        <ele>42.908632</ele>
        <time>2026-05-04T23:05:27.422Z</time>
      </trkpt>
      <trkpt lat="43.561173" lon="10.711807">
        <ele>43.057649</ele>
        <time>2026-05-04T23:05:38.392Z</time>
      </trkpt>
      <trkpt lat="43.561126" lon="10.711782">
        <ele>43.075744</ele>
        <time>2026-05-04T23:05:39.737Z</time>
      </trkpt>
      <trkpt lat="43.560941" lon="10.712062">
        <ele>43.174381</ele>
        <time>2026-05-04T23:05:47.048Z</time>
      </trkpt>
      <trkpt lat="43.560767" lon="10.712115">
        <ele>43.238391</ele>
        <time>2026-05-04T23:05:51.504Z</time>
      </trkpt>
      <trkpt lat="43.560431" lon="10.712154">
        <ele>43.359518</ele>
        <time>2026-05-04T23:05:59.824Z</time>
      </trkpt>
      <trkpt lat="43.560315" lon="10.712429">
        <ele>43.505769</ele>
        <time>2026-05-04T23:06:05.593Z</time>
      </trkpt>
      <trkpt lat="43.560235" lon="10.712661">
        <ele>43.694552</ele>
        <time>2026-05-04T23:06:10.311Z</time>
      </trkpt>
      <trkpt lat="43.559930" lon="10.712981">
        <ele>44.083045</ele>
        <time>2026-05-04T23:06:20.294Z</time>
      </trkpt>
      <trkpt lat="43.559738" lon="10.713337">
        <ele>44.409121</ele>
        <time>2026-05-04T23:06:29.190Z</time>
      </trkpt>
      <trkpt lat="43.559488" lon="10.713999">
        <ele>44.957633</ele>
        <time>2026-05-04T23:06:45.552Z</time>
      </trkpt>
      <trkpt lat="43.559319" lon="10.714696">
        <ele>45.460848</ele>
        <time>2026-05-04T23:07:04.653Z</time>
      </trkpt>
      <trkpt lat="43.559215" lon="10.715141">
        <ele>45.756898</ele>
        <time>2026-05-04T23:07:16.382Z</time>
      </trkpt>
      <trkpt lat="43.559182" lon="10.715283">
        <ele>45.851318</ele>
        <time>2026-05-04T23:07:19.946Z</time>
      </trkpt>
      <trkpt lat="43.559030" lon="10.715587">
        <ele>46.085173</ele>
        <time>2026-05-04T23:07:28.303Z</time>
      </trkpt>
      <trkpt lat="43.559105" lon="10.715649">
        <ele>46.161563</ele>
        <time>2026-05-04T23:07:30.855Z</time>
      </trkpt>
      <trkpt lat="43.559220" lon="10.715674">
        <ele>46.263282</ele>
        <time>2026-05-04T23:07:34.090Z</time>
      </trkpt>
      <trkpt lat="43.559857" lon="10.715636">
        <ele>46.782210</ele>
        <time>2026-05-04T23:07:48.950Z</time>
      </trkpt>
      <trkpt lat="43.560343" lon="10.715640">
        <ele>46.281031</ele>
        <time>2026-05-04T23:07:58.510Z</time>
      </trkpt>
      <trkpt lat="43.561078" lon="10.715774">
        <ele>45.516504</ele>
        <time>2026-05-04T23:08:12.863Z</time>
      </trkpt>
      <trkpt lat="43.561274" lon="10.715851">
        <ele>45.306355</ele>
        <time>2026-05-04T23:08:16.939Z</time>
      </trkpt>
      <trkpt lat="43.561763" lon="10.716217">
        <ele>44.763391</ele>
        <time>2026-05-04T23:08:28.361Z</time>
      </trkpt>
      <trkpt lat="43.562032" lon="10.716466">
        <ele>44.476967</ele>
        <time>2026-05-04T23:08:35.131Z</time>
      </trkpt>
      <trkpt lat="43.562310" lon="10.716672">
        <ele>44.197942</ele>
        <time>2026-05-04T23:08:41.821Z</time>
      </trkpt>
      <trkpt lat="43.562508" lon="10.716763">
        <ele>44.013402</ele>
        <time>2026-05-04T23:08:46.171Z</time>
      </trkpt>
      <trkpt lat="43.563453" lon="10.716821">
        <ele>43.216784</ele>
        <time>2026-05-04T23:09:05.286Z</time>
      </trkpt>
      <trkpt lat="43.563626" lon="10.716872">
        <ele>43.094855</ele>
        <time>2026-05-04T23:09:08.874Z</time>
      </trkpt>
      <trkpt lat="43.564064" lon="10.717079">
        <ele>42.775757</ele>
        <time>2026-05-04T23:09:18.378Z</time>
      </trkpt>
      <trkpt lat="43.564095" lon="10.717098">
        <ele>42.752378</ele>
        <time>2026-05-04T23:09:19.076Z</time>
      </trkpt>
      <trkpt lat="43.565008" lon="10.717521">
        <ele>42.108838</ele>
        <time>2026-05-04T23:09:39.685Z</time>
      </trkpt>
      <trkpt lat="43.565394" lon="10.717671">
        <ele>42.023411</ele>
        <time>2026-05-04T23:09:48.644Z</time>
      </trkpt>
      <trkpt lat="43.565898" lon="10.718039">
        <ele>41.901943</ele>
        <time>2026-05-04T23:10:01.441Z</time>
      </trkpt>
      <trkpt lat="43.566297" lon="10.718149">
        <ele>41.815265</ele>
        <time>2026-05-04T23:10:10.661Z</time>
      </trkpt>
      <trkpt lat="43.566523" lon="10.718173">
        <ele>41.766978</ele>
        <time>2026-05-04T23:10:15.827Z</time>
      </trkpt>
      <trkpt lat="43.567257" lon="10.718142">
        <ele>41.539520</ele>
        <time>2026-05-04T23:10:32.145Z</time>
      </trkpt>
      <trkpt lat="43.567619" lon="10.718056">
        <ele>41.416519</ele>
        <time>2026-05-04T23:10:40.175Z</time>
      </trkpt>
      <trkpt lat="43.567875" lon="10.718036">
        <ele>41.330659</ele>
        <time>2026-05-04T23:10:45.751Z</time>
      </trkpt>
      <trkpt lat="43.568736" lon="10.718321">
        <ele>41.059340</ele>
        <time>2026-05-04T23:11:04.799Z</time>
      </trkpt>
      <trkpt lat="43.568867" lon="10.718354">
        <ele>41.026169</ele>
        <time>2026-05-04T23:11:07.654Z</time>
      </trkpt>
      <trkpt lat="43.569027" lon="10.718352">
        <ele>40.986311</ele>
        <time>2026-05-04T23:11:11.121Z</time>
      </trkpt>
      <trkpt lat="43.569385" lon="10.718204">
        <ele>40.893217</ele>
        <time>2026-05-04T23:11:19.317Z</time>
      </trkpt>
      <trkpt lat="43.570216" lon="10.717535">
        <ele>40.683236</ele>
        <time>2026-05-04T23:11:41.072Z</time>
      </trkpt>
      <trkpt lat="43.570410" lon="10.717425">
        <ele>40.681262</ele>
        <time>2026-05-04T23:11:46.139Z</time>
      </trkpt>
      <trkpt lat="43.570603" lon="10.717376">
        <ele>40.679415</ele>
        <time>2026-05-04T23:11:50.976Z</time>
      </trkpt>
      <trkpt lat="43.570751" lon="10.717393">
        <ele>40.678017</ele>
        <time>2026-05-04T23:11:54.627Z</time>
      </trkpt>
      <trkpt lat="43.570791" lon="10.717428">
        <ele>40.677571</ele>
        <time>2026-05-04T23:11:55.781Z</time>
      </trkpt>
      <trkpt lat="43.570815" lon="10.717479">
        <ele>40.677157</ele>
        <time>2026-05-04T23:11:56.866Z</time>
      </trkpt>
      <trkpt lat="43.570925" lon="10.718323">
        <ele>40.671309</ele>
        <time>2026-05-04T23:12:11.515Z</time>
      </trkpt>
      <trkpt lat="43.570958" lon="10.718412">
        <ele>40.670627</ele>
        <time>2026-05-04T23:12:13.182Z</time>
      </trkpt>
      <trkpt lat="43.571014" lon="10.718472">
        <ele>40.669960</ele>
        <time>2026-05-04T23:12:14.788Z</time>
      </trkpt>
      <trkpt lat="43.571132" lon="10.718481">
        <ele>40.668847</ele>
        <time>2026-05-04T23:12:17.494Z</time>
      </trkpt>
      <trkpt lat="43.573172" lon="10.718053">
        <ele>39.945306</ele>
        <time>2026-05-04T23:13:01.941Z</time>
      </trkpt>
      <trkpt lat="43.573649" lon="10.717957">
        <ele>39.862712</ele>
        <time>2026-05-04T23:13:12.577Z</time>
      </trkpt>
      <trkpt lat="43.574325" lon="10.717746">
        <ele>39.743960</ele>
        <time>2026-05-04T23:13:28.662Z</time>
      </trkpt>
      <trkpt lat="43.574887" lon="10.717517">
        <ele>39.640144</ele>
        <time>2026-05-04T23:13:42.082Z</time>
      </trkpt>
      <trkpt lat="43.576166" lon="10.717112">
        <ele>39.360064</ele>
        <time>2026-05-04T23:14:11.035Z</time>
      </trkpt>
      <trkpt lat="43.578823" lon="10.716801">
        <ele>38.691972</ele>
        <time>2026-05-04T23:15:09.986Z</time>
      </trkpt>
      <trkpt lat="43.579048" lon="10.716774">
        <ele>38.661803</ele>
        <time>2026-05-04T23:15:15.069Z</time>
      </trkpt>
      <trkpt lat="43.580380" lon="10.716590">
        <ele>38.488560</ele>
        <time>2026-05-04T23:15:45.512Z</time>
      </trkpt>
      <trkpt lat="43.580428" lon="10.713915">
        <ele>38.205221</ele>
        <time>2026-05-04T23:16:29.495Z</time>
      </trkpt>
      <trkpt lat="43.582573" lon="10.713499">
        <ele>37.428842</ele>
        <time>2026-05-04T23:17:49.211Z</time>
      </trkpt>
      <trkpt lat="43.584995" lon="10.713022">
        <ele>36.256297</ele>
        <time>2026-05-04T23:19:18.445Z</time>
      </trkpt>
      <trkpt lat="43.585182" lon="10.712934">
        <ele>36.159357</ele>
        <time>2026-05-04T23:19:25.897Z</time>
      </trkpt>
      <trkpt lat="43.585756" lon="10.712345">
        <ele>35.662999</ele>
        <time>2026-05-04T23:19:52.029Z</time>
      </trkpt>
      <trkpt lat="43.586152" lon="10.711956">
        <ele>35.282467</ele>
        <time>2026-05-04T23:20:08.812Z</time>
      </trkpt>
      <trkpt lat="43.586343" lon="10.711816">
        <ele>35.113150</ele>
        <time>2026-05-04T23:20:16.299Z</time>
      </trkpt>
      <trkpt lat="43.586557" lon="10.711834">
        <ele>34.945285</ele>
        <time>2026-05-04T23:20:23.860Z</time>
      </trkpt>
      <trkpt lat="43.586669" lon="10.711904">
        <ele>34.849025</ele>
        <time>2026-05-04T23:20:28.255Z</time>
      </trkpt>
      <trkpt lat="43.586801" lon="10.712059">
        <ele>34.713346</ele>
        <time>2026-05-04T23:20:34.515Z</time>
      </trkpt>
      <trkpt lat="43.586943" lon="10.712347">
        <ele>34.747225</ele>
        <time>2026-05-04T23:20:43.645Z</time>
      </trkpt>
      <trkpt lat="43.587114" lon="10.712704">
        <ele>34.941597</ele>
        <time>2026-05-04T23:20:54.903Z</time>
      </trkpt>
      <trkpt lat="43.587241" lon="10.713014">
        <ele>35.103340</ele>
        <time>2026-05-04T23:21:04.858Z</time>
      </trkpt>
      <trkpt lat="43.587275" lon="10.713247">
        <ele>35.211280</ele>
        <time>2026-05-04T23:21:12.263Z</time>
      </trkpt>
      <trkpt lat="43.587179" lon="10.713478">
        <ele>35.332228</ele>
        <time>2026-05-04T23:21:18.600Z</time>
      </trkpt>
      <trkpt lat="43.586894" lon="10.713912">
        <ele>35.598269</ele>
        <time>2026-05-04T23:21:33.827Z</time>
      </trkpt>
      <trkpt lat="43.587166" lon="10.714722">
        <ele>36.003627</ele>
        <time>2026-05-04T23:22:03.397Z</time>
      </trkpt>
      <trkpt lat="43.587124" lon="10.714924">
        <ele>36.099025</ele>
        <time>2026-05-04T23:22:09.849Z</time>
      </trkpt>
      <trkpt lat="43.587070" lon="10.714999">
        <ele>36.147028</ele>
        <time>2026-05-04T23:22:13.098Z</time>
      </trkpt>
      <trkpt lat="43.586927" lon="10.715092">
        <ele>36.246091</ele>
        <time>2026-05-04T23:22:19.856Z</time>
      </trkpt>
      <trkpt lat="43.586874" lon="10.715161">
        <ele>36.291745</ele>
        <time>2026-05-04T23:22:22.936Z</time>
      </trkpt>
      <trkpt lat="43.586774" lon="10.715522">
        <ele>36.467191</ele>
        <time>2026-05-04T23:22:34.643Z</time>
      </trkpt>
      <trkpt lat="43.586656" lon="10.715399">
        <ele>36.559852</ele>
        <time>2026-05-04T23:22:38.536Z</time>
      </trkpt>
      <trkpt lat="43.586774" lon="10.715522">
        <ele>36.652513</ele>
        <time>2026-05-04T23:22:42.283Z</time>
      </trkpt>
      <trkpt lat="43.586868" lon="10.715704">
        <ele>36.753981</ele>
        <time>2026-05-04T23:22:46.191Z</time>
      </trkpt>
      <trkpt lat="43.587068" lon="10.716466">
        <ele>36.999437</ele>
        <time>2026-05-04T23:23:00.223Z</time>
      </trkpt>
      <trkpt lat="43.587162" lon="10.716710">
        <ele>37.055898</ele>
        <time>2026-05-04T23:23:05.290Z</time>
      </trkpt>
      <trkpt lat="43.587478" lon="10.717075">
        <ele>37.172106</ele>
        <time>2026-05-04T23:23:16.044Z</time>
      </trkpt>
      <trkpt lat="43.587541" lon="10.717188">
        <ele>37.201239</ele>
        <time>2026-05-04T23:23:18.787Z</time>
      </trkpt>
      <trkpt lat="43.587628" lon="10.717447">
        <ele>37.259565</ele>
        <time>2026-05-04T23:23:24.312Z</time>
      </trkpt>
      <trkpt lat="43.587917" lon="10.718376">
        <ele>37.514717</ele>
        <time>2026-05-04T23:23:43.956Z</time>
      </trkpt>
      <trkpt lat="43.588037" lon="10.719392">
        <ele>37.896551</ele>
        <time>2026-05-04T23:24:03.929Z</time>
      </trkpt>
      <trkpt lat="43.588175" lon="10.719600">
        <ele>38.001176</ele>
        <time>2026-05-04T23:24:09.474Z</time>
      </trkpt>
      <trkpt lat="43.589031" lon="10.720146">
        <ele>38.569298</ele>
        <time>2026-05-04T23:24:35.794Z</time>
      </trkpt>
      <trkpt lat="43.589054" lon="10.720141">
        <ele>38.587719</ele>
        <time>2026-05-04T23:24:36.436Z</time>
      </trkpt>
      <trkpt lat="43.590473" lon="10.719775">
        <ele>39.729782</ele>
        <time>2026-05-04T23:25:17.418Z</time>
      </trkpt>
      <trkpt lat="43.591253" lon="10.719367">
        <ele>40.075485</ele>
        <time>2026-05-04T23:25:39.675Z</time>
      </trkpt>
      <trkpt lat="43.591324" lon="10.719325">
        <ele>40.106550</ele>
        <time>2026-05-04T23:25:41.640Z</time>
      </trkpt>
      <trkpt lat="43.592133" lon="10.718857">
        <ele>40.459319</ele>
        <time>2026-05-04T23:26:03.232Z</time>
      </trkpt>
      <trkpt lat="43.592235" lon="10.718791">
        <ele>40.460571</ele>
        <time>2026-05-04T23:26:05.818Z</time>
      </trkpt>
      <trkpt lat="43.592422" lon="10.718689">
        <ele>40.425125</ele>
        <time>2026-05-04T23:26:10.364Z</time>
      </trkpt>
      <trkpt lat="43.592537" lon="10.718625">
        <ele>40.403267</ele>
        <time>2026-05-04T23:26:13.135Z</time>
      </trkpt>
      <trkpt lat="43.592959" lon="10.718390">
        <ele>40.323049</ele>
        <time>2026-05-04T23:26:23.356Z</time>
      </trkpt>
      <trkpt lat="43.592987" lon="10.718373">
        <ele>40.317657</ele>
        <time>2026-05-04T23:26:24.050Z</time>
      </trkpt>
      <trkpt lat="43.593488" lon="10.718104">
        <ele>40.222892</ele>
        <time>2026-05-04T23:26:36.165Z</time>
      </trkpt>
      <trkpt lat="43.593721" lon="10.718042">
        <ele>40.181060</ele>
        <time>2026-05-04T23:26:41.425Z</time>
      </trkpt>
      <trkpt lat="43.594403" lon="10.718080">
        <ele>39.923166</ele>
        <time>2026-05-04T23:26:55.910Z</time>
      </trkpt>
      <trkpt lat="43.594685" lon="10.718035">
        <ele>39.801541</ele>
        <time>2026-05-04T23:27:01.800Z</time>
      </trkpt>
      <trkpt lat="43.594848" lon="10.717932">
        <ele>39.724739</ele>
        <time>2026-05-04T23:27:05.585Z</time>
      </trkpt>
      <trkpt lat="43.595233" lon="10.717551">
        <ele>39.521799</ele>
        <time>2026-05-04T23:27:15.898Z</time>
      </trkpt>
      <trkpt lat="43.595565" lon="10.717210">
        <ele>39.411438</ele>
        <time>2026-05-04T23:27:25.144Z</time>
      </trkpt>
      <trkpt lat="43.596009" lon="10.716759">
        <ele>39.553543</ele>
        <time>2026-05-04T23:27:37.795Z</time>
      </trkpt>
      <trkpt lat="43.596131" lon="10.716635">
        <ele>39.592598</ele>
        <time>2026-05-04T23:27:41.524Z</time>
      </trkpt>
      <trkpt lat="43.596724" lon="10.715875">
        <ele>39.801185</ele>
        <time>2026-05-04T23:28:03.362Z</time>
      </trkpt>
      <trkpt lat="43.596884" lon="10.715721">
        <ele>39.849122</ele>
        <time>2026-05-04T23:28:08.214Z</time>
      </trkpt>
      <trkpt lat="43.597208" lon="10.715503">
        <ele>39.792736</ele>
        <time>2026-05-04T23:28:17.034Z</time>
      </trkpt>
      <trkpt lat="43.597281" lon="10.715456">
        <ele>39.780135</ele>
        <time>2026-05-04T23:28:18.947Z</time>
      </trkpt>
      <trkpt lat="43.597298" lon="10.715443">
        <ele>39.777095</ele>
        <time>2026-05-04T23:28:19.427Z</time>
      </trkpt>
      <trkpt lat="43.597473" lon="10.715303">
        <ele>39.745454</ele>
        <time>2026-05-04T23:28:24.204Z</time>
      </trkpt>
      <trkpt lat="43.597735" lon="10.714979">
        <ele>39.690430</ele>
        <time>2026-05-04T23:28:32.237Z</time>
      </trkpt>
      <trkpt lat="43.598035" lon="10.714575">
        <ele>39.624872</ele>
        <time>2026-05-04T23:28:41.475Z</time>
      </trkpt>
      <trkpt lat="43.598217" lon="10.714247">
        <ele>39.578056</ele>
        <time>2026-05-04T23:28:47.729Z</time>
      </trkpt>
      <trkpt lat="43.599284" lon="10.712245">
        <ele>38.254128</ele>
        <time>2026-05-04T23:29:24.640Z</time>
      </trkpt>
      <trkpt lat="43.599992" lon="10.710941">
        <ele>38.184605</ele>
        <time>2026-05-04T23:29:50.686Z</time>
      </trkpt>
      <trkpt lat="43.601108" lon="10.709538">
        <ele>38.375901</ele>
        <time>2026-05-04T23:30:30.506Z</time>
      </trkpt>
      <trkpt lat="43.601579" lon="10.708962">
        <ele>38.532004</ele>
        <time>2026-05-04T23:30:45.933Z</time>
      </trkpt>
      <trkpt lat="43.601817" lon="10.708671">
        <ele>38.610877</ele>
        <time>2026-05-04T23:30:53.155Z</time>
      </trkpt>
      <trkpt lat="43.601905" lon="10.708552">
        <ele>38.575990</ele>
        <time>2026-05-04T23:30:55.863Z</time>
      </trkpt>
      <trkpt lat="43.602326" lon="10.708012">
        <ele>38.355349</ele>
        <time>2026-05-04T23:31:08.024Z</time>
      </trkpt>
      <trkpt lat="43.602665" lon="10.707566">
        <ele>38.175554</ele>
        <time>2026-05-04T23:31:17.788Z</time>
      </trkpt>
      <trkpt lat="43.602920" lon="10.707247">
        <ele>38.043430</ele>
        <time>2026-05-04T23:31:25.185Z</time>
      </trkpt>
      <trkpt lat="43.603041" lon="10.707136">
        <ele>37.987649</ele>
        <time>2026-05-04T23:31:28.362Z</time>
      </trkpt>
      <trkpt lat="43.603256" lon="10.706982">
        <ele>37.912858</ele>
        <time>2026-05-04T23:31:33.905Z</time>
      </trkpt>
      <trkpt lat="43.603382" lon="10.706898">
        <ele>37.891291</ele>
        <time>2026-05-04T23:31:37.534Z</time>
      </trkpt>
      <trkpt lat="43.603470" lon="10.706832">
        <ele>37.875855</ele>
        <time>2026-05-04T23:31:40.087Z</time>
      </trkpt>
      <trkpt lat="43.603552" lon="10.706771">
        <ele>37.861498</ele>
        <time>2026-05-04T23:31:42.466Z</time>
      </trkpt>
      <trkpt lat="43.603656" lon="10.706685">
        <ele>37.842813</ele>
        <time>2026-05-04T23:31:45.260Z</time>
      </trkpt>
      <trkpt lat="43.603982" lon="10.706301">
        <ele>37.776765</ele>
        <time>2026-05-04T23:31:55.491Z</time>
      </trkpt>
      <trkpt lat="43.604097" lon="10.706082">
        <ele>37.746570</ele>
        <time>2026-05-04T23:31:59.966Z</time>
      </trkpt>
      <trkpt lat="43.604102" lon="10.705834">
        <ele>37.718878</ele>
        <time>2026-05-04T23:32:04.143Z</time>
      </trkpt>
      <trkpt lat="43.603994" lon="10.705405">
        <ele>37.668182</ele>
        <time>2026-05-04T23:32:11.469Z</time>
      </trkpt>
      <trkpt lat="43.603882" lon="10.704927">
        <ele>37.414655</ele>
        <time>2026-05-04T23:32:19.095Z</time>
      </trkpt>
      <trkpt lat="43.603812" lon="10.704842">
        <ele>37.320861</ele>
        <time>2026-05-04T23:32:21.067Z</time>
      </trkpt>
      <trkpt lat="43.603754" lon="10.704714">
        <ele>37.210840</ele>
        <time>2026-05-04T23:32:23.345Z</time>
      </trkpt>
      <trkpt lat="43.603654" lon="10.704636">
        <ele>37.095274</ele>
        <time>2026-05-04T23:32:25.688Z</time>
      </trkpt>
      <trkpt lat="43.603003" lon="10.703788">
        <ele>36.194774</ele>
        <time>2026-05-04T23:32:43.839Z</time>
      </trkpt>
      <trkpt lat="43.602877" lon="10.703742">
        <ele>36.063632</ele>
        <time>2026-05-04T23:32:46.704Z</time>
      </trkpt>
      <trkpt lat="43.602815" lon="10.703537">
        <ele>35.901753</ele>
        <time>2026-05-04T23:32:50.351Z</time>
      </trkpt>
      <trkpt lat="43.602805" lon="10.703243">
        <ele>35.870856</ele>
        <time>2026-05-04T23:32:55.397Z</time>
      </trkpt>
      <trkpt lat="43.602837" lon="10.702741">
        <ele>35.951039</ele>
        <time>2026-05-04T23:33:04.930Z</time>
      </trkpt>
      <trkpt lat="43.602822" lon="10.702611">
        <ele>35.971984</ele>
        <time>2026-05-04T23:33:07.555Z</time>
      </trkpt>
      <trkpt lat="43.602703" lon="10.702287">
        <ele>36.029788</ele>
        <time>2026-05-04T23:33:15.009Z</time>
      </trkpt>
      <trkpt lat="43.602700" lon="10.702222">
        <ele>36.040152</ele>
        <time>2026-05-04T23:33:16.324Z</time>
      </trkpt>
      <trkpt lat="43.602720" lon="10.702167">
        <ele>36.049944</ele>
        <time>2026-05-04T23:33:17.634Z</time>
      </trkpt>
      <trkpt lat="43.603012" lon="10.701930">
        <ele>36.124365</ele>
        <time>2026-05-04T23:33:27.330Z</time>
      </trkpt>
      <trkpt lat="43.603198" lon="10.701572">
        <ele>36.194472</ele>
        <time>2026-05-04T23:33:36.132Z</time>
      </trkpt>
      <trkpt lat="43.603215" lon="10.701519">
        <ele>36.203695</ele>
        <time>2026-05-04T23:33:37.204Z</time>
      </trkpt>
      <trkpt lat="43.603209" lon="10.701401">
        <ele>36.222516</ele>
        <time>2026-05-04T23:33:39.451Z</time>
      </trkpt>
      <trkpt lat="43.603206" lon="10.701257">
        <ele>36.170371</ele>
        <time>2026-05-04T23:33:41.996Z</time>
      </trkpt>
      <trkpt lat="43.603186" lon="10.700622">
        <ele>35.652952</ele>
        <time>2026-05-04T23:33:52.663Z</time>
      </trkpt>
      <trkpt lat="43.603177" lon="10.700218">
        <ele>35.323915</ele>
        <time>2026-05-04T23:33:59.024Z</time>
      </trkpt>
      <trkpt lat="43.603200" lon="10.700067">
        <ele>35.198301</ele>
        <time>2026-05-04T23:34:01.382Z</time>
      </trkpt>
      <trkpt lat="43.603257" lon="10.699917">
        <ele>35.060400</ele>
        <time>2026-05-04T23:34:03.951Z</time>
      </trkpt>
      <trkpt lat="43.603350" lon="10.699784">
        <ele>34.909891</ele>
        <time>2026-05-04T23:34:06.734Z</time>
      </trkpt>
      <trkpt lat="43.603222" lon="10.699531">
        <ele>34.658645</ele>
        <time>2026-05-04T23:34:11.028Z</time>
      </trkpt>
      <trkpt lat="43.603116" lon="10.699327">
        <ele>34.454246</ele>
        <time>2026-05-04T23:34:14.401Z</time>
      </trkpt>
      <trkpt lat="43.602955" lon="10.698956">
        <ele>34.051687</ele>
        <time>2026-05-04T23:34:20.086Z</time>
      </trkpt>
      <trkpt lat="43.602740" lon="10.698387">
        <ele>33.287352</ele>
        <time>2026-05-04T23:34:28.427Z</time>
      </trkpt>
      <trkpt lat="43.602599" lon="10.697956">
        <ele>32.724116</ele>
        <time>2026-05-04T23:34:34.782Z</time>
      </trkpt>
      <trkpt lat="43.602375" lon="10.697333">
        <ele>31.895749</ele>
        <time>2026-05-04T23:34:44.412Z</time>
      </trkpt>
      <trkpt lat="43.602282" lon="10.697067">
        <ele>31.543973</ele>
        <time>2026-05-04T23:34:48.625Z</time>
      </trkpt>
      <trkpt lat="43.602365" lon="10.696998">
        <ele>31.384646</ele>
        <time>2026-05-04T23:34:50.570Z</time>
      </trkpt>
      <trkpt lat="43.602068" lon="10.696223">
        <ele>31.397292</ele>
        <time>2026-05-04T23:35:04.831Z</time>
      </trkpt>
      <trkpt lat="43.601995" lon="10.695938">
        <ele>31.454168</ele>
        <time>2026-05-04T23:35:10.815Z</time>
      </trkpt>
      <trkpt lat="43.601917" lon="10.695837">
        <ele>31.481948</ele>
        <time>2026-05-04T23:35:13.816Z</time>
      </trkpt>
      <trkpt lat="43.601531" lon="10.695511">
        <ele>31.599503</ele>
        <time>2026-05-04T23:35:26.465Z</time>
      </trkpt>
      <trkpt lat="43.600946" lon="10.695016">
        <ele>31.740538</ele>
        <time>2026-05-04T23:35:44.515Z</time>
      </trkpt>
      <trkpt lat="43.600936" lon="10.694953">
        <ele>31.744798</ele>
        <time>2026-05-04T23:35:45.713Z</time>
      </trkpt>
      <trkpt lat="43.601053" lon="10.694633">
        <ele>31.768472</ele>
        <time>2026-05-04T23:35:52.121Z</time>
      </trkpt>
      <trkpt lat="43.601058" lon="10.694550">
        <ele>31.773973</ele>
        <time>2026-05-04T23:35:53.575Z</time>
      </trkpt>
      <trkpt lat="43.601120" lon="10.694529">
        <ele>31.779795</ele>
        <time>2026-05-04T23:35:55.081Z</time>
      </trkpt>
      <trkpt lat="43.601305" lon="10.694024">
        <ele>31.817171</ele>
        <time>2026-05-04T23:36:10.805Z</time>
      </trkpt>
      <trkpt lat="43.601668" lon="10.693163">
        <ele>31.882969</ele>
        <time>2026-05-04T23:36:37.783Z</time>
      </trkpt>
      <trkpt lat="43.602981" lon="10.690045">
        <ele>31.451552</ele>
        <time>2026-05-04T23:38:15.565Z</time>
      </trkpt>
      <trkpt lat="43.603500" lon="10.688758">
        <ele>31.317227</ele>
        <time>2026-05-04T23:38:56.017Z</time>
      </trkpt>
      <trkpt lat="43.603733" lon="10.688117">
        <ele>31.261322</ele>
        <time>2026-05-04T23:39:15.990Z</time>
      </trkpt>
      <trkpt lat="43.604005" lon="10.687632">
        <ele>31.213506</ele>
        <time>2026-05-04T23:39:32.852Z</time>
      </trkpt>
      <trkpt lat="43.603758" lon="10.687349">
        <ele>31.178960</ele>
        <time>2026-05-04T23:39:45.019Z</time>
      </trkpt>
      <trkpt lat="43.606264" lon="10.680789">
        <ele>29.564821</ele>
        <time>2026-05-04T23:43:03.712Z</time>
      </trkpt>
      <trkpt lat="43.606379" lon="10.680566">
        <ele>29.508083</ele>
        <time>2026-05-04T23:43:11.101Z</time>
      </trkpt>
      <trkpt lat="43.606432" lon="10.680330">
        <ele>29.456875</ele>
        <time>2026-05-04T23:43:17.779Z</time>
      </trkpt>
      <trkpt lat="43.606426" lon="10.680159">
        <ele>29.422987</ele>
        <time>2026-05-04T23:43:22.418Z</time>
      </trkpt>
      <trkpt lat="43.606356" lon="10.680029">
        <ele>29.396355</ele>
        <time>2026-05-04T23:43:26.838Z</time>
      </trkpt>
      <trkpt lat="43.605820" lon="10.679720">
        <ele>29.264489</ele>
        <time>2026-05-04T23:43:48.638Z</time>
      </trkpt>
      <trkpt lat="43.606035" lon="10.679021">
        <ele>29.139641</ele>
        <time>2026-05-04T23:44:09.256Z</time>
      </trkpt>
      <trkpt lat="43.606588" lon="10.677521">
        <ele>28.734935</ele>
        <time>2026-05-04T23:44:54.370Z</time>
      </trkpt>
      <trkpt lat="43.607981" lon="10.673886">
        <ele>27.457489</ele>
        <time>2026-05-04T23:46:43.452Z</time>
      </trkpt>
      <trkpt lat="43.608037" lon="10.673842">
        <ele>27.437359</ele>
        <time>2026-05-04T23:46:45.840Z</time>
      </trkpt>
      <trkpt lat="43.608095" lon="10.673870">
        <ele>27.418161</ele>
        <time>2026-05-04T23:46:48.140Z</time>
      </trkpt>
      <trkpt lat="43.608669" lon="10.674224">
        <ele>27.221745</ele>
        <time>2026-05-04T23:47:11.401Z</time>
      </trkpt>
      <trkpt lat="43.608952" lon="10.674240">
        <ele>27.133248</ele>
        <time>2026-05-04T23:47:21.897Z</time>
      </trkpt>
      <trkpt lat="43.609120" lon="10.674342">
        <ele>27.075908</ele>
        <time>2026-05-04T23:47:28.705Z</time>
      </trkpt>
      <trkpt lat="43.609173" lon="10.674338">
        <ele>27.059323</ele>
        <time>2026-05-04T23:47:30.680Z</time>
      </trkpt>
      <trkpt lat="43.610509" lon="10.672561">
        <ele>26.704360</ele>
        <time>2026-05-04T23:48:39.928Z</time>
      </trkpt>
      <trkpt lat="43.610589" lon="10.672488">
        <ele>26.689713</ele>
        <time>2026-05-04T23:48:43.542Z</time>
      </trkpt>
      <trkpt lat="43.610653" lon="10.672533">
        <ele>26.678742</ele>
        <time>2026-05-04T23:48:46.283Z</time>
      </trkpt>
      <trkpt lat="43.611581" lon="10.673606">
        <ele>26.688540</ele>
        <time>2026-05-04T23:49:32.835Z</time>
      </trkpt>
      <trkpt lat="43.611634" lon="10.673663">
        <ele>26.691546</ele>
        <time>2026-05-04T23:49:35.475Z</time>
      </trkpt>
      <trkpt lat="43.611678" lon="10.673659">
        <ele>26.693520</ele>
        <time>2026-05-04T23:49:37.219Z</time>
      </trkpt>
      <trkpt lat="43.611725" lon="10.673610">
        <ele>26.696156</ele>
        <time>2026-05-04T23:49:39.539Z</time>
      </trkpt>
      <trkpt lat="43.612269" lon="10.672581">
        <ele>26.627452</ele>
        <time>2026-05-04T23:50:15.211Z</time>
      </trkpt>
      <trkpt lat="43.612375" lon="10.672419">
        <ele>26.572340</ele>
        <time>2026-05-04T23:50:21.144Z</time>
      </trkpt>
      <trkpt lat="43.612430" lon="10.672407">
        <ele>26.552929</ele>
        <time>2026-05-04T23:50:23.217Z</time>
      </trkpt>
      <trkpt lat="43.612451" lon="10.672294">
        <ele>26.523484</ele>
        <time>2026-05-04T23:50:26.357Z</time>
      </trkpt>
      <trkpt lat="43.612570" lon="10.671988">
        <ele>26.435814</ele>
        <time>2026-05-04T23:50:35.624Z</time>
      </trkpt>
      <trkpt lat="43.612572" lon="10.671849">
        <ele>26.400724</ele>
        <time>2026-05-04T23:50:39.311Z</time>
      </trkpt>
      <trkpt lat="43.612545" lon="10.671760">
        <ele>26.376369</ele>
        <time>2026-05-04T23:50:41.856Z</time>
      </trkpt>
      <trkpt lat="43.612474" lon="10.671641">
        <ele>26.337450</ele>
        <time>2026-05-04T23:50:45.931Z</time>
      </trkpt>
      <trkpt lat="43.611736" lon="10.670911">
        <ele>26.067360</ele>
        <time>2026-05-04T23:51:18.721Z</time>
      </trkpt>
      <trkpt lat="43.611670" lon="10.670808">
        <ele>26.053567</ele>
        <time>2026-05-04T23:51:22.351Z</time>
      </trkpt>
      <trkpt lat="43.611639" lon="10.670600">
        <ele>26.032272</ele>
        <time>2026-05-04T23:51:28.004Z</time>
      </trkpt>
      <trkpt lat="43.611671" lon="10.669740">
        <ele>25.945917</ele>
        <time>2026-05-04T23:51:51.616Z</time>
      </trkpt>
      <trkpt lat="43.611725" lon="10.669499">
        <ele>25.920619</ele>
        <time>2026-05-04T23:51:58.719Z</time>
      </trkpt>
      <trkpt lat="43.611864" lon="10.669468">
        <ele>25.901118</ele>
        <time>2026-05-04T23:52:04.233Z</time>
      </trkpt>
      <trkpt lat="43.612205" lon="10.669769">
        <ele>25.845696</ele>
        <time>2026-05-04T23:52:20.232Z</time>
      </trkpt>
      <trkpt lat="43.612263" lon="10.669754">
        <ele>25.838901</ele>
        <time>2026-05-04T23:52:22.554Z</time>
      </trkpt>
      <trkpt lat="43.613295" lon="10.667924">
        <ele>25.645485</ele>
        <time>2026-05-04T23:53:26.063Z</time>
      </trkpt>
      <trkpt lat="43.613604" lon="10.668283">
        <ele>25.482722</ele>
        <time>2026-05-04T23:53:40.668Z</time>
      </trkpt>
      <trkpt lat="43.614239" lon="10.668331">
        <ele>25.209948</ele>
        <time>2026-05-04T23:54:03.549Z</time>
      </trkpt>
      <trkpt lat="43.614698" lon="10.668867">
        <ele>24.952138</ele>
        <time>2026-05-04T23:54:25.396Z</time>
      </trkpt>
      <trkpt lat="43.615536" lon="10.669742">
        <ele>25.130689</ele>
        <time>2026-05-04T23:55:05.310Z</time>
      </trkpt>
      <trkpt lat="43.615938" lon="10.670227">
        <ele>25.292486</ele>
        <time>2026-05-04T23:55:27.400Z</time>
      </trkpt>
      <trkpt lat="43.616415" lon="10.671006">
        <ele>25.615872</ele>
        <time>2026-05-04T23:55:59.681Z</time>
      </trkpt>
      <trkpt lat="43.616507" lon="10.670977">
        <ele>25.672653</ele>
        <time>2026-05-04T23:56:03.784Z</time>
      </trkpt>
      <trkpt lat="43.616648" lon="10.670106">
        <ele>26.061452</ele>
        <time>2026-05-04T23:56:31.448Z</time>
      </trkpt>
      <trkpt lat="43.616778" lon="10.669428">
        <ele>26.366988</ele>
        <time>2026-05-04T23:56:52.444Z</time>
      </trkpt>
      <trkpt lat="43.617114" lon="10.667519">
        <ele>26.371238</ele>
        <time>2026-05-04T23:57:46.301Z</time>
      </trkpt>
      <trkpt lat="43.617592" lon="10.664484">
        <ele>25.775656</ele>
        <time>2026-05-04T23:59:09.563Z</time>
      </trkpt>
      <trkpt lat="43.617855" lon="10.663141">
        <ele>25.448132</ele>
        <time>2026-05-04T23:59:46.692Z</time>
      </trkpt>
      <trkpt lat="43.617997" lon="10.662218">
        <ele>25.225658</ele>
        <time>2026-05-05T00:00:11.980Z</time>
      </trkpt>
      <trkpt lat="43.618504" lon="10.658917">
        <ele>24.632450</ele>
        <time>2026-05-05T00:01:43.314Z</time>
      </trkpt>
      <trkpt lat="43.618629" lon="10.656276">
        <ele>24.302570</ele>
        <time>2026-05-05T00:02:55.281Z</time>
      </trkpt>
      <trkpt lat="43.618676" lon="10.655285">
        <ele>24.192584</ele>
        <time>2026-05-05T00:03:22.312Z</time>
      </trkpt>
      <trkpt lat="43.618905" lon="10.650261">
        <ele>23.590723</ele>
        <time>2026-05-05T00:05:39.159Z</time>
      </trkpt>
      <trkpt lat="43.618905" lon="10.650162">
        <ele>23.578402</ele>
        <time>2026-05-05T00:05:41.846Z</time>
      </trkpt>
      <trkpt lat="43.618741" lon="10.650064">
        <ele>23.547683</ele>
        <time>2026-05-05T00:05:47.148Z</time>
      </trkpt>
      <trkpt lat="43.618905" lon="10.650162">
        <ele>23.516965</ele>
        <time>2026-05-05T00:05:52.451Z</time>
      </trkpt>
      <trkpt lat="43.618910" lon="10.649280">
        <ele>23.368884</ele>
        <time>2026-05-05T00:06:16.380Z</time>
      </trkpt>
      <trkpt lat="43.618985" lon="10.647473">
        <ele>23.045657</ele>
        <time>2026-05-05T00:07:05.127Z</time>
      </trkpt>
      <trkpt lat="43.619033" lon="10.646607">
        <ele>22.828408</ele>
        <time>2026-05-05T00:07:28.151Z</time>
      </trkpt>
      <trkpt lat="43.619114" lon="10.645154">
        <ele>22.463889</ele>
        <time>2026-05-05T00:08:07.166Z</time>
      </trkpt>
      <trkpt lat="43.619184" lon="10.645037">
        <ele>22.433221</ele>
        <time>2026-05-05T00:08:11.274Z</time>
      </trkpt>
      <trkpt lat="43.619252" lon="10.645020">
        <ele>22.419139</ele>
        <time>2026-05-05T00:08:13.869Z</time>
      </trkpt>
      <trkpt lat="43.619691" lon="10.645242">
        <ele>22.323872</ele>
        <time>2026-05-05T00:08:31.400Z</time>
      </trkpt>
      <trkpt lat="43.619876" lon="10.645399">
        <ele>22.279625</ele>
        <time>2026-05-05T00:08:36.258Z</time>
      </trkpt>
      <trkpt lat="43.620728" lon="10.645970">
        <ele>22.086647</ele>
        <time>2026-05-05T00:08:57.529Z</time>
      </trkpt>
      <trkpt lat="43.621014" lon="10.646252">
        <ele>22.047143</ele>
        <time>2026-05-05T00:09:05.226Z</time>
      </trkpt>
      <trkpt lat="43.621265" lon="10.646631">
        <ele>22.010512</ele>
        <time>2026-05-05T00:09:13.489Z</time>
      </trkpt>
      <trkpt lat="43.623102" lon="10.649707">
        <ele>21.764470</ele>
        <time>2026-05-05T00:10:19.935Z</time>
      </trkpt>
      <trkpt lat="43.622870" lon="10.648043">
        <ele>21.067196</ele>
        <time>2026-05-05T00:11:04.435Z</time>
      </trkpt>
      <trkpt lat="43.623062" lon="10.647924">
        <ele>20.944646</ele>
        <time>2026-05-05T00:11:11.957Z</time>
      </trkpt>
      <trkpt lat="43.623454" lon="10.647679">
        <ele>20.689493</ele>
        <time>2026-05-05T00:11:27.280Z</time>
      </trkpt>
      <trkpt lat="43.623885" lon="10.647651">
        <ele>20.381480</ele>
        <time>2026-05-05T00:11:42.579Z</time>
      </trkpt>
      <trkpt lat="43.624129" lon="10.647459">
        <ele>20.181023</ele>
        <time>2026-05-05T00:11:52.544Z</time>
      </trkpt>
      <trkpt lat="43.624390" lon="10.647311">
        <ele>19.979620</ele>
        <time>2026-05-05T00:12:02.606Z</time>
      </trkpt>
      <trkpt lat="43.624630" lon="10.646981">
        <ele>19.737893</ele>
        <time>2026-05-05T00:12:14.834Z</time>
      </trkpt>
      <trkpt lat="43.624744" lon="10.646902">
        <ele>19.646848</ele>
        <time>2026-05-05T00:12:19.463Z</time>
      </trkpt>
      <trkpt lat="43.624845" lon="10.646869">
        <ele>19.572759</ele>
        <time>2026-05-05T00:12:23.227Z</time>
      </trkpt>
      <trkpt lat="43.625210" lon="10.646901">
        <ele>19.380034</ele>
        <time>2026-05-05T00:12:36.438Z</time>
      </trkpt>
      <trkpt lat="43.625577" lon="10.646840">
        <ele>19.268024</ele>
        <time>2026-05-05T00:12:49.888Z</time>
      </trkpt>
      <trkpt lat="43.626340" lon="10.646449">
        <ele>19.021427</ele>
        <time>2026-05-05T00:13:20.054Z</time>
      </trkpt>
      <trkpt lat="43.626897" lon="10.645923">
        <ele>18.935933</ele>
        <time>2026-05-05T00:13:45.719Z</time>
      </trkpt>
      <trkpt lat="43.627308" lon="10.644804">
        <ele>19.139006</ele>
        <time>2026-05-05T00:14:21.423Z</time>
      </trkpt>
      <trkpt lat="43.627471" lon="10.643811">
        <ele>19.320815</ele>
        <time>2026-05-05T00:14:51.167Z</time>
      </trkpt>
      <trkpt lat="43.628922" lon="10.643723">
        <ele>19.986353</ele>
        <time>2026-05-05T00:15:50.554Z</time>
      </trkpt>
      <trkpt lat="43.629148" lon="10.643762">
        <ele>20.090719</ele>
        <time>2026-05-05T00:15:59.893Z</time>
      </trkpt>
      <trkpt lat="43.631252" lon="10.644148">
        <ele>20.824382</ele>
        <time>2026-05-05T00:17:26.121Z</time>
      </trkpt>
      <trkpt lat="43.632475" lon="10.644406">
        <ele>20.808431</ele>
        <time>2026-05-05T00:18:13.134Z</time>
      </trkpt>
      <trkpt lat="43.632760" lon="10.644368">
        <ele>20.803917</ele>
        <time>2026-05-05T00:18:23.744Z</time>
      </trkpt>
      <trkpt lat="43.633245" lon="10.644500">
        <ele>20.649885</ele>
        <time>2026-05-05T00:18:42.145Z</time>
      </trkpt>
      <trkpt lat="43.633395" lon="10.644492">
        <ele>20.603109</ele>
        <time>2026-05-05T00:18:47.737Z</time>
      </trkpt>
      <trkpt lat="43.633536" lon="10.644419">
        <ele>20.556190</ele>
        <time>2026-05-05T00:18:53.367Z</time>
      </trkpt>
      <trkpt lat="43.633796" lon="10.644163">
        <ele>20.456705</ele>
        <time>2026-05-05T00:19:05.268Z</time>
      </trkpt>
      <trkpt lat="43.633941" lon="10.643983">
        <ele>20.395965</ele>
        <time>2026-05-05T00:19:12.503Z</time>
      </trkpt>
      <trkpt lat="43.634019" lon="10.643861">
        <ele>20.359253</ele>
        <time>2026-05-05T00:19:16.860Z</time>
      </trkpt>
      <trkpt lat="43.634213" lon="10.643356">
        <ele>20.202653</ele>
        <time>2026-05-05T00:19:32.013Z</time>
      </trkpt>
      <trkpt lat="43.634284" lon="10.643242">
        <ele>20.101712</ele>
        <time>2026-05-05T00:19:36.025Z</time>
      </trkpt>
      <trkpt lat="43.634367" lon="10.643156">
        <ele>20.005505</ele>
        <time>2026-05-05T00:19:39.840Z</time>
      </trkpt>
      <trkpt lat="43.635115" lon="10.642642">
        <ele>19.230812</ele>
        <time>2026-05-05T00:20:09.646Z</time>
      </trkpt>
      <trkpt lat="43.635258" lon="10.642798">
        <ele>19.061854</ele>
        <time>2026-05-05T00:20:15.880Z</time>
      </trkpt>
      <trkpt lat="43.635524" lon="10.642926">
        <ele>18.800653</ele>
        <time>2026-05-05T00:20:25.430Z</time>
      </trkpt>
      <trkpt lat="43.636774" lon="10.643338">
        <ele>17.851097</ele>
        <time>2026-05-05T00:21:09.694Z</time>
      </trkpt>
      <trkpt lat="43.637029" lon="10.643423">
        <ele>17.668728</ele>
        <time>2026-05-05T00:21:19.464Z</time>
      </trkpt>
      <trkpt lat="43.637083" lon="10.643407">
        <ele>17.630332</ele>
        <time>2026-05-05T00:21:21.533Z</time>
      </trkpt>
      <trkpt lat="43.637119" lon="10.643349">
        <ele>17.591886</ele>
        <time>2026-05-05T00:21:23.655Z</time>
      </trkpt>
      <trkpt lat="43.637261" lon="10.642565">
        <ele>17.377553</ele>
        <time>2026-05-05T00:21:46.587Z</time>
      </trkpt>
      <trkpt lat="43.637412" lon="10.642302">
        <ele>17.439579</ele>
        <time>2026-05-05T00:21:56.406Z</time>
      </trkpt>
      <trkpt lat="43.637493" lon="10.642010">
        <ele>17.497357</ele>
        <time>2026-05-05T00:22:06.014Z</time>
      </trkpt>
      <trkpt lat="43.637569" lon="10.641880">
        <ele>17.528233</ele>
        <time>2026-05-05T00:22:11.191Z</time>
      </trkpt>
      <trkpt lat="43.637673" lon="10.641864">
        <ele>17.554947</ele>
        <time>2026-05-05T00:22:15.661Z</time>
      </trkpt>
      <trkpt lat="43.637883" lon="10.641916">
        <ele>17.609413</ele>
        <time>2026-05-05T00:22:24.522Z</time>
      </trkpt>
      <trkpt lat="43.638123" lon="10.641976">
        <ele>17.671678</ele>
        <time>2026-05-05T00:22:34.317Z</time>
      </trkpt>
      <trkpt lat="43.638317" lon="10.641995">
        <ele>17.721329</ele>
        <time>2026-05-05T00:22:41.791Z</time>
      </trkpt>
      <trkpt lat="43.638376" lon="10.641994">
        <ele>17.736392</ele>
        <time>2026-05-05T00:22:44.052Z</time>
      </trkpt>
      <trkpt lat="43.638895" lon="10.641964">
        <ele>17.802233</ele>
        <time>2026-05-05T00:23:03.267Z</time>
      </trkpt>
      <trkpt lat="43.639161" lon="10.641901">
        <ele>17.816312</ele>
        <time>2026-05-05T00:23:13.307Z</time>
      </trkpt>
      <trkpt lat="43.639334" lon="10.641903">
        <ele>17.825338</ele>
        <time>2026-05-05T00:23:20.042Z</time>
      </trkpt>
      <trkpt lat="43.639591" lon="10.641954">
        <ele>17.838883</ele>
        <time>2026-05-05T00:23:30.544Z</time>
      </trkpt>
      <trkpt lat="43.640016" lon="10.641890">
        <ele>17.861186</ele>
        <time>2026-05-05T00:23:47.473Z</time>
      </trkpt>
      <trkpt lat="43.640126" lon="10.641916">
        <ele>17.867008</ele>
        <time>2026-05-05T00:23:51.717Z</time>
      </trkpt>
      <trkpt lat="43.640249" lon="10.641996">
        <ele>17.874100</ele>
        <time>2026-05-05T00:23:56.947Z</time>
      </trkpt>
      <trkpt lat="43.640577" lon="10.642253">
        <ele>17.873471</ele>
        <time>2026-05-05T00:24:11.336Z</time>
      </trkpt>
      <trkpt lat="43.640925" lon="10.641972">
        <ele>17.865760</ele>
        <time>2026-05-05T00:24:26.706Z</time>
      </trkpt>
      <trkpt lat="43.641604" lon="10.641425">
        <ele>17.850725</ele>
        <time>2026-05-05T00:24:56.830Z</time>
      </trkpt>
      <trkpt lat="43.641762" lon="10.641313">
        <ele>17.847328</ele>
        <time>2026-05-05T00:25:03.414Z</time>
      </trkpt>
      <trkpt lat="43.641853" lon="10.641282">
        <ele>17.845535</ele>
        <time>2026-05-05T00:25:06.906Z</time>
      </trkpt>
      <trkpt lat="43.642509" lon="10.641257">
        <ele>17.863831</ele>
        <time>2026-05-05T00:25:31.731Z</time>
      </trkpt>
      <trkpt lat="43.642682" lon="10.641296">
        <ele>17.869450</ele>
        <time>2026-05-05T00:25:38.545Z</time>
      </trkpt>
      <trkpt lat="43.642746" lon="10.641310">
        <ele>17.871527</ele>
        <time>2026-05-05T00:25:41.095Z</time>
      </trkpt>
      <trkpt lat="43.644558" lon="10.641955">
        <ele>17.863806</ele>
        <time>2026-05-05T00:26:53.190Z</time>
      </trkpt>
      <trkpt lat="43.645575" lon="10.642074">
        <ele>17.773698</ele>
        <time>2026-05-05T00:27:31.553Z</time>
      </trkpt>
      <trkpt lat="43.646585" lon="10.642244">
        <ele>17.380217</ele>
        <time>2026-05-05T00:28:09.483Z</time>
      </trkpt>
      <trkpt lat="43.646558" lon="10.642286">
        <ele>17.364495</ele>
        <time>2026-05-05T00:28:10.983Z</time>
      </trkpt>
      <trkpt lat="43.646542" lon="10.642290">
        <ele>17.358207</ele>
        <time>2026-05-05T00:28:11.579Z</time>
      </trkpt>
      <trkpt lat="43.646558" lon="10.642286">
        <ele>17.351919</ele>
        <time>2026-05-05T00:28:12.174Z</time>
      </trkpt>
      <trkpt lat="43.646585" lon="10.642244">
        <ele>17.336197</ele>
        <time>2026-05-05T00:28:13.670Z</time>
      </trkpt>
      <trkpt lat="43.646678" lon="10.641663">
        <ele>17.169680</ele>
        <time>2026-05-05T00:28:29.357Z</time>
      </trkpt>
      <trkpt lat="43.646687" lon="10.641061">
        <ele>16.948740</ele>
        <time>2026-05-05T00:28:44.786Z</time>
      </trkpt>
      <trkpt lat="43.646675" lon="10.640632">
        <ele>16.780139</ele>
        <time>2026-05-05T00:28:55.738Z</time>
      </trkpt>
      <trkpt lat="43.646656" lon="10.639964">
        <ele>16.517602</ele>
        <time>2026-05-05T00:29:13.058Z</time>
      </trkpt>
      <trkpt lat="43.646699" lon="10.639468">
        <ele>16.321422</ele>
        <time>2026-05-05T00:29:26.184Z</time>
      </trkpt>
      <trkpt lat="43.646731" lon="10.637590">
        <ele>16.194846</ele>
        <time>2026-05-05T00:30:18.143Z</time>
      </trkpt>
      <trkpt lat="43.646731" lon="10.637590">
        <ele>16.194846</ele>
        <time>2026-05-05T00:30:18.158Z</time>
      </trkpt>
      <trkpt lat="43.647242" lon="10.637410">
        <ele>16.214789</ele>
        <time>2026-05-05T00:30:40.711Z</time>
      </trkpt>
      <trkpt lat="43.647752" lon="10.637229">
        <ele>16.196315</ele>
        <time>2026-05-05T00:31:03.248Z</time>
      </trkpt>
      <trkpt lat="43.647686" lon="10.637970">
        <ele>16.149406</ele>
        <time>2026-05-05T00:31:23.816Z</time>
      </trkpt>
      <trkpt lat="43.647686" lon="10.638049">
        <ele>16.144443</ele>
        <time>2026-05-05T00:31:25.980Z</time>
      </trkpt>
      <trkpt lat="43.647690" lon="10.639615">
        <ele>16.171490</ele>
        <time>2026-05-05T00:32:08.351Z</time>
      </trkpt>
      <trkpt lat="43.647739" lon="10.639902">
        <ele>16.264539</ele>
        <time>2026-05-05T00:32:16.441Z</time>
      </trkpt>
      <trkpt lat="43.647894" lon="10.640242">
        <ele>16.391343</ele>
        <time>2026-05-05T00:32:27.767Z</time>
      </trkpt>
      <trkpt lat="43.647955" lon="10.640520">
        <ele>16.483010</ele>
        <time>2026-05-05T00:32:36.160Z</time>
      </trkpt>
      <trkpt lat="43.648008" lon="10.641426">
        <ele>16.769828</ele>
        <time>2026-05-05T00:33:03.610Z</time>
      </trkpt>
      <trkpt lat="43.648030" lon="10.642658">
        <ele>17.404070</ele>
        <time>2026-05-05T00:33:44.745Z</time>
      </trkpt>
      <trkpt lat="43.648053" lon="10.642799">
        <ele>17.486076</ele>
        <time>2026-05-05T00:33:49.571Z</time>
      </trkpt>
      <trkpt lat="43.648811" lon="10.643038">
        <ele>18.095695</ele>
        <time>2026-05-05T00:34:12.382Z</time>
      </trkpt>
      <trkpt lat="43.648978" lon="10.643169">
        <ele>18.246262</ele>
        <time>2026-05-05T00:34:17.324Z</time>
      </trkpt>
      <trkpt lat="43.649748" lon="10.643442">
        <ele>17.522778</ele>
        <time>2026-05-05T00:34:34.301Z</time>
      </trkpt>
      <trkpt lat="43.649774" lon="10.643452">
        <ele>17.497066</ele>
        <time>2026-05-05T00:34:34.848Z</time>
      </trkpt>
      <trkpt lat="43.651178" lon="10.644017">
        <ele>15.965147</ele>
        <time>2026-05-05T00:35:03.027Z</time>
      </trkpt>
      <trkpt lat="43.651758" lon="10.644324">
        <ele>15.188541</ele>
        <time>2026-05-05T00:35:15.156Z</time>
      </trkpt>
      <trkpt lat="43.651847" lon="10.644445">
        <ele>15.032435</ele>
        <time>2026-05-05T00:35:17.587Z</time>
      </trkpt>
      <trkpt lat="43.652104" lon="10.644203">
        <ele>14.643583</ele>
        <time>2026-05-05T00:35:23.682Z</time>
      </trkpt>
      <trkpt lat="43.652418" lon="10.644036">
        <ele>14.298040</ele>
        <time>2026-05-05T00:35:30.578Z</time>
      </trkpt>
      <trkpt lat="43.652633" lon="10.643985">
        <ele>14.294924</ele>
        <time>2026-05-05T00:35:35.233Z</time>
      </trkpt>
      <trkpt lat="43.652673" lon="10.643991">
        <ele>14.294350</ele>
        <time>2026-05-05T00:35:36.127Z</time>
      </trkpt>
      <trkpt lat="43.652918" lon="10.644065">
        <ele>14.290768</ele>
        <time>2026-05-05T00:35:41.661Z</time>
      </trkpt>
      <trkpt lat="43.653722" lon="10.644621">
        <ele>14.277928</ele>
        <time>2026-05-05T00:36:03.407Z</time>
      </trkpt>
      <trkpt lat="43.653967" lon="10.644787">
        <ele>14.274031</ele>
        <time>2026-05-05T00:36:10.834Z</time>
      </trkpt>
      <trkpt lat="43.654054" lon="10.644911">
        <ele>14.294575</ele>
        <time>2026-05-05T00:36:14.253Z</time>
      </trkpt>
      <trkpt lat="43.654096" lon="10.644988">
        <ele>14.316431</ele>
        <time>2026-05-05T00:36:16.137Z</time>
      </trkpt>
      <trkpt lat="43.654193" lon="10.645044">
        <ele>14.349362</ele>
        <time>2026-05-05T00:36:18.966Z</time>
      </trkpt>
      <trkpt lat="43.654263" lon="10.645030">
        <ele>14.371519</ele>
        <time>2026-05-05T00:36:20.807Z</time>
      </trkpt>
      <trkpt lat="43.654322" lon="10.644978">
        <ele>14.393440</ele>
        <time>2026-05-05T00:36:22.678Z</time>
      </trkpt>
      <trkpt lat="43.654371" lon="10.644851">
        <ele>14.426062</ele>
        <time>2026-05-05T00:36:25.344Z</time>
      </trkpt>
      <trkpt lat="43.654340" lon="10.644675">
        <ele>14.467118</ele>
        <time>2026-05-05T00:36:28.663Z</time>
      </trkpt>
      <trkpt lat="43.654353" lon="10.644274">
        <ele>14.558097</ele>
        <time>2026-05-05T00:36:35.809Z</time>
      </trkpt>
      <trkpt lat="43.654292" lon="10.643683">
        <ele>14.693406</ele>
        <time>2026-05-05T00:36:46.333Z</time>
      </trkpt>
      <trkpt lat="43.653830" lon="10.639423">
        <ele>14.883437</ele>
        <time>2026-05-05T00:37:59.659Z</time>
      </trkpt>
      <trkpt lat="43.653748" lon="10.638553">
        <ele>14.784937</ele>
        <time>2026-05-05T00:38:13.602Z</time>
      </trkpt>
      <trkpt lat="43.653756" lon="10.637816">
        <ele>14.673858</ele>
        <time>2026-05-05T00:38:25.157Z</time>
      </trkpt>
      <trkpt lat="43.653917" lon="10.635976">
        <ele>14.300684</ele>
        <time>2026-05-05T00:38:54.654Z</time>
      </trkpt>
      <trkpt lat="43.653947" lon="10.635839">
        <ele>14.271864</ele>
        <time>2026-05-05T00:38:56.982Z</time>
      </trkpt>
      <trkpt lat="43.654059" lon="10.635617">
        <ele>14.233677</ele>
        <time>2026-05-05T00:39:01.454Z</time>
      </trkpt>
      <trkpt lat="43.654116" lon="10.635550">
        <ele>14.229844</ele>
        <time>2026-05-05T00:39:03.170Z</time>
      </trkpt>
      <trkpt lat="43.654171" lon="10.635380">
        <ele>14.222941</ele>
        <time>2026-05-05T00:39:06.263Z</time>
      </trkpt>
      <trkpt lat="43.654150" lon="10.635195">
        <ele>14.216001</ele>
        <time>2026-05-05T00:39:09.356Z</time>
      </trkpt>
      <trkpt lat="43.654096" lon="10.635095">
        <ele>14.211376</ele>
        <time>2026-05-05T00:39:11.400Z</time>
      </trkpt>
      <trkpt lat="43.654040" lon="10.634833">
        <ele>14.201250</ele>
        <time>2026-05-05T00:39:15.968Z</time>
      </trkpt>
      <trkpt lat="43.654036" lon="10.634651">
        <ele>14.194501</ele>
        <time>2026-05-05T00:39:18.994Z</time>
      </trkpt>
      <trkpt lat="43.654246" lon="10.632250">
        <ele>14.218477</ele>
        <time>2026-05-05T00:39:59.042Z</time>
      </trkpt>
      <trkpt lat="43.654286" lon="10.631815">
        <ele>14.247984</ele>
        <time>2026-05-05T00:40:06.289Z</time>
      </trkpt>
      <trkpt lat="43.654333" lon="10.631822">
        <ele>14.252380</ele>
        <time>2026-05-05T00:40:09.600Z</time>
      </trkpt>
      <trkpt lat="43.654382" lon="10.631568">
        <ele>14.270069</ele>
        <time>2026-05-05T00:40:22.839Z</time>
      </trkpt>
      <trkpt lat="43.654453" lon="10.631450">
        <ele>14.280397</ele>
        <time>2026-05-05T00:40:30.541Z</time>
      </trkpt>
      <trkpt lat="43.654467" lon="10.631444">
        <ele>14.281760</ele>
        <time>2026-05-05T00:40:31.579Z</time>
      </trkpt>
      <trkpt lat="43.654542" lon="10.631413">
        <ele>14.289041</ele>
        <time>2026-05-05T00:40:37.021Z</time>
      </trkpt>
      <trkpt lat="43.654655" lon="10.631430">
        <ele>14.299612</ele>
        <time>2026-05-05T00:40:44.908Z</time>
      </trkpt>
      <trkpt lat="43.654666" lon="10.631375">
        <ele>14.303452</ele>
        <time>2026-05-05T00:40:47.803Z</time>
      </trkpt>
      <trkpt lat="43.654604" lon="10.631337">
        <ele>14.309760</ele>
        <time>2026-05-05T00:40:49.493Z</time>
      </trkpt>
      <trkpt lat="43.654628" lon="10.631289">
        <ele>14.312498</ele>
        <time>2026-05-05T00:40:50.569Z</time>
      </trkpt>
      <trkpt lat="43.654679" lon="10.631313">
        <ele>14.312498</ele>
        <time>2026-05-05T00:40:51.953Z</time>
      </trkpt>
      <trkpt lat="43.654984" lon="10.631432">
        <ele>14.312498</ele>
        <time>2026-05-05T00:41:00.038Z</time>
      </trkpt>
      <trkpt lat="43.655125" lon="10.631413">
        <ele>14.312498</ele>
        <time>2026-05-05T00:41:03.792Z</time>
      </trkpt>
      <trkpt lat="43.655438" lon="10.631528">
        <ele>14.312498</ele>
        <time>2026-05-05T00:41:12.521Z</time>
      </trkpt>
      <trkpt lat="43.655590" lon="10.631469">
        <ele>14.312498</ele>
        <time>2026-05-05T00:41:16.937Z</time>
      </trkpt>
      <trkpt lat="43.655659" lon="10.631488">
        <ele>14.312498</ele>
        <time>2026-05-05T00:41:19.003Z</time>
      </trkpt>
      <trkpt lat="43.655627" lon="10.631643">
        <ele>14.312498</ele>
        <time>2026-05-05T00:41:22.437Z</time>
      </trkpt>
      <trkpt lat="43.655659" lon="10.631488">
        <ele>14.312498</ele>
        <time>2026-05-05T00:41:25.831Z</time>
      </trkpt>
      <trkpt lat="43.655747" lon="10.631021">
        <ele>14.312498</ele>
        <time>2026-05-05T00:41:35.955Z</time>
      </trkpt>
      <trkpt lat="43.655783" lon="10.630798">
        <ele>14.312498</ele>
        <time>2026-05-05T00:41:40.545Z</time>
      </trkpt>
      <trkpt lat="43.655865" lon="10.630705">
        <ele>14.312498</ele>
        <time>2026-05-05T00:41:44.172Z</time>
      </trkpt>
      <trkpt lat="43.655924" lon="10.630280">
        <ele>14.312498</ele>
        <time>2026-05-05T00:41:54.839Z</time>
      </trkpt>
      <trkpt lat="43.655958" lon="10.630008">
        <ele>14.312498</ele>
        <time>2026-05-05T00:42:01.598Z</time>
      </trkpt>
    </trkseg>
  </trk>
</gpx>